Observation data for Smyer on 06/26/2019      Previous  Date  Next       Current Mesonet Observations  Soil Data  Daily Summary Page  Observations in Plain Language
KSM2 260500Z 10014KT 21/17 A3014 RMK A01 T02050169  RH  080%=      5-min Rain = 0
KSM2 260501Z 10013KT 21/17 A3014 RMK A01 T02050169  RH  080%=      5-min Rain = 0
KSM2 260502Z 10013KT 21/17 A3014 RMK A01 T02050170  RH  080%=      5-min Rain = 0
KSM2 260503Z 10013KT 20/17 A3014 RMK A01 T02040170  RH  081%=      5-min Rain = 0.01
KSM2 260504Z 10011KT 20/17 A3014 RMK A01 T02030172  RH  082%=      5-min Rain = 0
KSM2 260505Z 10012KT 20/17 A3014 RMK A01 T02020172  RH  083%=      5-min Rain = 0
KSM2 260506Z 10009KT 20/17 A3014 RMK A01 T02020172  RH  083%=      5-min Rain = 0
KSM2 260507Z 11008KT 20/17 A3014 RMK A01 T02020172  RH  083%=      5-min Rain = 0
KSM2 260508Z 11007KT 20/17 A3013 RMK A01 T02020169  RH  081%=      5-min Rain = 0
KSM2 260509Z 11008KT 20/17 A3013 RMK A01 T02030170  RH  082%=      5-min Rain = 0
KSM2 260510Z 11008KT 20/17 A3013 RMK A01 T02030172  RH  082%=      5-min Rain = 0
KSM2 260511Z 10008KT 20/17 A3013 RMK A01 T02030171  RH  082%=      5-min Rain = 0.01
KSM2 260512Z 11009KT 20/17 A3013 RMK A01 T02030172  RH  082%=      5-min Rain = 0
KSM2 260513Z 11009KT 20/17 A3013 RMK A01 T02040172  RH  082%=      5-min Rain = 0
KSM2 260514Z 11010KT 20/17 A3013 RMK A01 T02040173  RH  082%=      5-min Rain = 0
KSM2 260515Z 11010KT 20/17 A3012 RMK A01 T02040174  RH  083%=      5-min Rain = 0
KSM2 260516Z 11009KT 20/18 A3012 RMK A01 T02040175  RH  083%=      5-min Rain = 0
KSM2 260517Z 11009KT 20/18 A3012 RMK A01 T02040176  RH  084%=      5-min Rain = 0
KSM2 260518Z 11011KT 20/18 A3012 RMK A01 T02040176  RH  084%=      5-min Rain = 0
KSM2 260519Z 11010KT 21/18 A3012 RMK A01 T02050175  RH  083%=      5-min Rain = 0
KSM2 260520Z 11010KT 21/18 A3012 RMK A01 T02070175  RH  082%=      5-min Rain = 0
KSM2 260521Z 12011KT 21/18 A3012 RMK A01 T02080176  RH  082%=      5-min Rain = 0
KSM2 260522Z 12010KT 21/18 A3012 RMK A01 T02090176  RH  082%=      5-min Rain = 0
KSM2 260523Z 12010KT 21/18 A3012 RMK A01 T02100176  RH  081%=      5-min Rain = 0
KSM2 260524Z 12010KT 21/18 A3012 RMK A01 T02100177  RH  081%=      5-min Rain = 0
KSM2 260525Z 12011KT 21/18 A3011 RMK A01 T02100178  RH  082%=      5-min Rain = 0
KSM2 260526Z 12012KT 21/18 A3011 RMK A01 T02110180  RH  082%=      5-min Rain = 0
KSM2 260527Z 12012G18KT 21/18 A3011 RMK A01 T02140182  RH  082%=      5-min Rain = 0
KSM2 260528Z 12012G18KT 22/18 A3011 RMK A01 T02170183  RH  081%=      5-min Rain = 0
KSM2 260529Z 11013KT 22/18 A3011 RMK A01 T02190183  RH  080%=      5-min Rain = 0
KSM2 260530Z 12013KT 22/18 A3011 RMK A01 T02200183  RH  079%=      5-min Rain = 0
KSM2 260531Z 12013KT 22/18 A3011 RMK A01 T02220183  RH  079%=      5-min Rain = 0
KSM2 260532Z 12012KT 22/18 A3011 RMK A01 T02230184  RH  079%=      5-min Rain = 0
KSM2 260533Z 12012KT 22/18 A3011 RMK A01 T02230184  RH  078%=      5-min Rain = 0
KSM2 260534Z 12011G16KT 22/18 A3012 RMK A01 T02240184  RH  078%=      5-min Rain = 0
KSM2 260535Z 12010KT 23/18 A3012 RMK A01 T02250184  RH  078%=      5-min Rain = 0
KSM2 260536Z 12012KT 23/19 A3012 RMK A01 T02260185  RH  078%=      5-min Rain = 0
KSM2 260537Z 12010KT 23/18 A3012 RMK A01 T02260184  RH  077%=      5-min Rain = 0
KSM2 260538Z 12009KT 23/19 A3012 RMK A01 T02270185  RH  077%=      5-min Rain = 0
KSM2 260539Z 12010KT 23/18 A3012 RMK A01 T02270184  RH  077%=      5-min Rain = 0
KSM2 260540Z 12010KT 23/19 A3013 RMK A01 T02280185  RH  077%=      5-min Rain = 0
KSM2 260541Z 12007KT 23/19 A3013 RMK A01 T02270185  RH  077%=      5-min Rain = 0
KSM2 260542Z 12008KT 23/19 A3013 RMK A01 T02280185  RH  077%=      5-min Rain = 0
KSM2 260543Z 12008KT 23/18 A3013 RMK A01 T02280184  RH  076%=      5-min Rain = 0
KSM2 260544Z 11008KT 23/18 A3013 RMK A01 T02290184  RH  076%=      5-min Rain = 0
KSM2 260545Z 11008KT 23/19 A3014 RMK A01 T02300185  RH  076%=      5-min Rain = 0
KSM2 260546Z 12006KT 23/19 A3014 RMK A01 T02300185  RH  076%=      5-min Rain = 0
KSM2 260547Z 11006KT 23/19 A3014 RMK A01 T02300185  RH  076%=      5-min Rain = 0
KSM2 260548Z 11005KT 23/18 A3014 RMK A01 T02300184  RH  075%=      5-min Rain = 0
KSM2 260549Z 11007KT 23/18 A3014 RMK A01 T02300184  RH  075%=      5-min Rain = 0
KSM2 260550Z 12004KT 23/19 A3014 RMK A01 T02310185  RH  075%=      5-min Rain = 0
KSM2 260551Z 12006KT 23/18 A3014 RMK A01 T02310183  RH  075%=      5-min Rain = 0
KSM2 260552Z 12005KT 23/18 A3014 RMK A01 T02310183  RH  074%=      5-min Rain = 0
KSM2 260553Z 13005KT 23/18 A3014 RMK A01 T02320184  RH  074%=      5-min Rain = 0
KSM2 260554Z 13006KT 23/18 A3014 RMK A01 T02320183  RH  074%=      5-min Rain = 0
KSM2 260555Z 13008KT 23/18 A3014 RMK A01 T02320182  RH  074%=      5-min Rain = 0
KSM2 260556Z 13008KT 23/18 A3014 RMK A01 T02320182  RH  073%=      5-min Rain = 0
KSM2 260557Z 14009KT 23/18 A3014 RMK A01 T02330181  RH  072%=      5-min Rain = 0
KSM2 260558Z 14009KT 23/18 A3014 RMK A01 T02340181  RH  072%=      5-min Rain = 0
KSM2 260559Z 14011KT 24/18 A3014 RMK A01 T02350181  RH  072%=      5-min Rain = 0
KSM2 260600Z 15012KT 24/18 A3014 RMK A01 T02350181  RH  071%=      5-min Rain = 0
KSM2 260601Z 14012KT 24/18 A3014 RMK A01 T02350181  RH  071%=      5-min Rain = 0
KSM2 260602Z 15014KT 24/18 A3013 RMK A01 T02360181  RH  071%=      5-min Rain = 0
KSM2 260603Z 14015KT 24/18 A3013 RMK A01 T02360181  RH  071%=      5-min Rain = 0
KSM2 260604Z 14016KT 24/18 A3012 RMK A01 T02350181  RH  071%=      5-min Rain = 0
KSM2 260605Z 14018KT 24/18 A3011 RMK A01 T02350181  RH  071%=      5-min Rain = 0
KSM2 260606Z 14018KT 24/18 A3011 RMK A01 T02350180  RH  071%=      5-min Rain = 0
KSM2 260607Z 14018KT 24/18 A3011 RMK A01 T02350180  RH  071%=      5-min Rain = 0
KSM2 260608Z 14019KT 24/18 A301 RMK A01 T02350181  RH  072%=      5-min Rain = 0
KSM2 260609Z 15019KT 24/18 A301 RMK A01 T02350181  RH  072%=      5-min Rain = 0
KSM2 260610Z 15019KT 24/18 A3009 RMK A01 T02350180  RH  071%=      5-min Rain = 0
KSM2 260611Z 15020KT 24/18 A3009 RMK A01 T02350182  RH  072%=      5-min Rain = 0
KSM2 260612Z 15020G27KT 23/18 A3009 RMK A01 T02330182  RH  073%=      5-min Rain = 0
KSM2 260613Z 15023KT 23/18 A3009 RMK A01 T02330182  RH  073%=      5-min Rain = 0
KSM2 260614Z 15020G26KT 23/18 A3009 RMK A01 T02320182  RH  074%=      5-min Rain = 0.01
KSM2 260615Z 15021KT 23/18 A3009 RMK A01 T02310183  RH  074%=      5-min Rain = 0
KSM2 260616Z 15019G24KT 23/18 A3009 RMK A01 T02310183  RH  074%=      5-min Rain = 0
KSM2 260617Z 15023G28KT 23/18 A3008 RMK A01 T02300182  RH  075%=      5-min Rain = 0
KSM2 260618Z 15024G30KT 23/18 A3007 RMK A01 T02300182  RH  074%=      5-min Rain = 0.01
KSM2 260619Z 14030G37KT 23/18 A3007 RMK A01 T02300182  RH  074%=      5-min Rain = 0
KSM2 260620Z 15025G32KT 23/18 A3008 RMK A01 T02300180  RH  073%=      5-min Rain = 0
KSM2 260621Z 15022KT 23/18 A3007 RMK A01 T02300181  RH  074%=      5-min Rain = 0
KSM2 260622Z 15021KT 23/18 A3007 RMK A01 T02300182  RH  075%=      5-min Rain = 0
KSM2 260623Z 15022KT 23/18 A3006 RMK A01 T02280182  RH  075%=      5-min Rain = 0
KSM2 260624Z 15025G32KT 23/18 A3006 RMK A01 T02280181  RH  075%=      5-min Rain = 0
KSM2 260625Z 15022G27KT 23/18 A3005 RMK A01 T02280181  RH  075%=      5-min Rain = 0
KSM2 260626Z 15028G36KT 23/18 A3005 RMK A01 T02290180  RH  074%=      5-min Rain = 0
KSM2 260627Z 15026KT 23/18 A3005 RMK A01 T02300179  RH  073%=      5-min Rain = 0
KSM2 260628Z 15024G30KT 23/18 A3005 RMK A01 T02310179  RH  072%=      5-min Rain = 0
KSM2 260629Z 15023KT 23/18 A3006 RMK A01 T02320179  RH  072%=      5-min Rain = 0
KSM2 260630Z 16023G28KT 23/18 A3007 RMK A01 T02320178  RH  071%=      5-min Rain = 0
KSM2 260631Z 16022G30KT 23/18 A3007 RMK A01 T02340177  RH  071%=      5-min Rain = 0
KSM2 260632Z 17017KT 23/18 A3007 RMK A01 T02340179  RH  071%=      5-min Rain = 0
KSM2 260633Z 18015KT 23/18 A3006 RMK A01 T02340180  RH  072%=      5-min Rain = 0
KSM2 260634Z 16016G24KT 23/18 A3005 RMK A01 T02320182  RH  073%=      5-min Rain = 0
KSM2 260635Z 14030G36KT 23/18 A3005 RMK A01 T02300180  RH  073%=      5-min Rain = 0
KSM2 260636Z 15025G31KT 23/18 A3005 RMK A01 T02310179  RH  073%=      5-min Rain = 0
KSM2 260637Z 15021G28KT 23/18 A3005 RMK A01 T02310180  RH  073%=      5-min Rain = 0.01
KSM2 260638Z 15020G26KT 23/18 A3004 RMK A01 T02300180  RH  073%=      5-min Rain = 0
KSM2 260639Z 15021KT 23/18 A3004 RMK A01 T02300181  RH  074%=      5-min Rain = 0
KSM2 260640Z 16023G31KT 23/18 A3004 RMK A01 T02290179  RH  073%=      5-min Rain = 0
KSM2 260641Z 16022G30KT 23/18 A3004 RMK A01 T02300177  RH  072%=      5-min Rain = 0
KSM2 260642Z 16025G35KT 23/18 A3003 RMK A01 T02310177  RH  071%=      5-min Rain = 0
KSM2 260643Z 15025G32KT 23/18 A3003 RMK A01 T02320177  RH  071%=      5-min Rain = 0
KSM2 260644Z 16024G33KT 23/18 A3003 RMK A01 T02320177  RH  071%=      5-min Rain = 0
KSM2 260645Z 16027KT 23/18 A3003 RMK A01 T02320176  RH  071%=      5-min Rain = 0
KSM2 260646Z 16026G32KT 23/18 A3003 RMK A01 T02330175  RH  070%=      5-min Rain = 0
KSM2 260647Z 16025G33KT 23/18 A3003 RMK A01 T02330175  RH  070%=      5-min Rain = 0
KSM2 260648Z 16025G33KT 23/18 A3003 RMK A01 T02340176  RH  070%=      5-min Rain = 0
KSM2 260649Z 16022G27KT 23/18 A3003 RMK A01 T02330177  RH  071%=      5-min Rain = 0
KSM2 260650Z 16026G33KT 23/18 A3004 RMK A01 T02320176  RH  071%=      5-min Rain = 0
KSM2 260651Z 16021G30KT 23/18 A3004 RMK A01 T02310175  RH  071%=      5-min Rain = 0
KSM2 260652Z 16022G30KT 23/18 A3004 RMK A01 T02310176  RH  071%=      5-min Rain = 0
KSM2 260653Z 16019G24KT 23/18 A3004 RMK A01 T02300177  RH  072%=      5-min Rain = 0
KSM2 260654Z 16019G24KT 23/18 A3004 RMK A01 T02290178  RH  073%=      5-min Rain = 0
KSM2 260655Z 16022G28KT 23/18 A3004 RMK A01 T02280177  RH  073%=      5-min Rain = 0
KSM2 260656Z 16021G27KT 23/18 A3005 RMK A01 T02290175  RH  072%=      5-min Rain = 0
KSM2 260657Z 15018KT 23/18 A3005 RMK A01 T02290176  RH  072%=      5-min Rain = 0
KSM2 260658Z 16019G25KT 23/18 A3005 RMK A01 T02290176  RH  072%=      5-min Rain = 0
KSM2 260659Z 16019KT 23/18 A3005 RMK A01 T02290176  RH  072%=      5-min Rain = 0
KSM2 260700Z 17016G21KT 23/18 A3005 RMK A01 T02280177  RH  073%=      5-min Rain = 0
KSM2 260701Z 16014KT 23/18 A3005 RMK A01 T02280176  RH  072%=      5-min Rain = 0
KSM2 260702Z 16019G24KT 23/18 A3005 RMK A01 T02280175  RH  072%=      5-min Rain = 0
KSM2 260703Z 16016KT 23/17 A3005 RMK A01 T02280174  RH  072%=      5-min Rain = 0
KSM2 260704Z 16018KT 23/17 A3005 RMK A01 T02280174  RH  071%=      5-min Rain = 0
KSM2 260705Z 16018G23KT 23/17 A3005 RMK A01 T02290173  RH  071%=      5-min Rain = 0
KSM2 260706Z 16018G23KT 23/17 A3005 RMK A01 T02290174  RH  071%=      5-min Rain = 0
KSM2 260707Z 16016G21KT 23/17 A3005 RMK A01 T02290174  RH  071%=      5-min Rain = 0
KSM2 260708Z 16018KT 23/17 A3005 RMK A01 T02280173  RH  071%=      5-min Rain = 0
KSM2 260709Z 16018KT 23/17 A3005 RMK A01 T02280174  RH  071%=      5-min Rain = 0
KSM2 260710Z 16018G25KT 23/17 A3005 RMK A01 T02280173  RH  071%=      5-min Rain = 0
KSM2 260711Z 16019G24KT 23/17 A3005 RMK A01 T02280172  RH  071%=      5-min Rain = 0
KSM2 260712Z 16018G25KT 23/17 A3005 RMK A01 T02280172  RH  071%=      5-min Rain = 0
KSM2 260713Z 16019G25KT 23/17 A3005 RMK A01 T02280173  RH  071%=      5-min Rain = 0
KSM2 260714Z 16017KT 23/17 A3005 RMK A01 T02280172  RH  071%=      5-min Rain = 0
KSM2 260715Z 16019G24KT 23/17 A3005 RMK A01 T02280173  RH  071%=      5-min Rain = 0
KSM2 260716Z 16017KT 23/17 A3005 RMK A01 T02270173  RH  071%=      5-min Rain = 0
KSM2 260717Z 16016KT 23/17 A3005 RMK A01 T02270173  RH  072%=      5-min Rain = 0
KSM2 260718Z 16019G25KT 23/17 A3005 RMK A01 T02260172  RH  071%=      5-min Rain = 0
KSM2 260719Z 17019G24KT 23/17 A3005 RMK A01 T02260171  RH  071%=      5-min Rain = 0
KSM2 260720Z 16018KT 23/17 A3005 RMK A01 T02270171  RH  071%=      5-min Rain = 0
KSM2 260721Z 16018G25KT 23/17 A3005 RMK A01 T02270172  RH  071%=      5-min Rain = 0
KSM2 260722Z 16017KT 23/17 A3005 RMK A01 T02260172  RH  071%=      5-min Rain = 0
KSM2 260723Z 16018G24KT 23/17 A3006 RMK A01 T02260172  RH  071%=      5-min Rain = 0
KSM2 260724Z 16018G24KT 23/17 A3006 RMK A01 T02260171  RH  071%=      5-min Rain = 0
KSM2 260725Z 16018G25KT 23/17 A3006 RMK A01 T02260172  RH  071%=      5-min Rain = 0
KSM2 260726Z 17015KT 23/17 A3006 RMK A01 T02250171  RH  071%=      5-min Rain = 0
KSM2 260727Z 17016KT 23/17 A3006 RMK A01 T02250171  RH  072%=      5-min Rain = 0
KSM2 260728Z 16012G17KT 23/17 A3006 RMK A01 T02250171  RH  072%=      5-min Rain = 0
KSM2 260729Z 17013KT 23/17 A3006 RMK A01 T02250172  RH  072%=      5-min Rain = 0
KSM2 260730Z 17015KT 22/17 A3006 RMK A01 T02230172  RH  073%=      5-min Rain = 0
KSM2 260731Z 16010KT 22/17 A3006 RMK A01 T02230171  RH  072%=      5-min Rain = 0
KSM2 260732Z 17011KT 22/17 A3006 RMK A01 T02230172  RH  073%=      5-min Rain = 0
KSM2 260733Z 17013KT 22/17 A3006 RMK A01 T02220171  RH  073%=      5-min Rain = 0
KSM2 260734Z 17013KT 22/17 A3007 RMK A01 T02220171  RH  073%=      5-min Rain = 0
KSM2 260735Z 17012G18KT 22/17 A3007 RMK A01 T02220171  RH  073%=      5-min Rain = 0
KSM2 260736Z 17012KT 22/17 A3007 RMK A01 T02220171  RH  073%=      5-min Rain = 0
KSM2 260737Z 16012KT 22/17 A3007 RMK A01 T02220171  RH  073%=      5-min Rain = 0
KSM2 260738Z 16009G15KT 22/17 A3007 RMK A01 T02220171  RH  073%=      5-min Rain = 0
KSM2 260739Z 16011KT 22/17 A3007 RMK A01 T02220171  RH  073%=      5-min Rain = 0
KSM2 260740Z 17009KT 22/17 A3007 RMK A01 T02220171  RH  073%=      5-min Rain = 0
KSM2 260741Z 16011KT 22/17 A3007 RMK A01 T02210171  RH  073%=      5-min Rain = 0
KSM2 260742Z 16012KT 22/17 A3007 RMK A01 T02210171  RH  073%=      5-min Rain = 0
KSM2 260743Z 16012KT 22/17 A3007 RMK A01 T02210170  RH  073%=      5-min Rain = 0
KSM2 260744Z 15011G17KT 22/17 A3007 RMK A01 T02210170  RH  073%=      5-min Rain = 0
KSM2 260745Z 16013KT 22/17 A3007 RMK A01 T02210170  RH  073%=      5-min Rain = 0
KSM2 260746Z 15011G17KT 22/17 A3007 RMK A01 T02210170  RH  073%=      5-min Rain = 0
KSM2 260747Z 15010KT 22/17 A3007 RMK A01 T02210171  RH  073%=      5-min Rain = 0
KSM2 260748Z 15012KT 22/17 A3007 RMK A01 T02210170  RH  073%=      5-min Rain = 0
KSM2 260749Z 14011KT 22/17 A3007 RMK A01 T02210170  RH  073%=      5-min Rain = 0
KSM2 260750Z 14009G14KT 22/17 A3008 RMK A01 T02210170  RH  073%=      5-min Rain = 0
KSM2 260751Z 13008KT 22/17 A3008 RMK A01 T02210170  RH  073%=      5-min Rain = 0
KSM2 260752Z 12010KT 22/17 A3008 RMK A01 T02210171  RH  073%=      5-min Rain = 0
KSM2 260753Z 12009KT 22/17 A3008 RMK A01 T02200171  RH  074%=      5-min Rain = 0
KSM2 260754Z 10009KT 22/17 A3009 RMK A01 T02190172  RH  075%=      5-min Rain = 0
KSM2 260755Z 09010KT 22/17 A3009 RMK A01 T02150172  RH  077%=      5-min Rain = 0
KSM2 260756Z 09010KT 21/17 A3009 RMK A01 T02120172  RH  078%=      5-min Rain = 0
KSM2 260757Z 09011KT 21/17 A3009 RMK A01 T02110172  RH  079%=      5-min Rain = 0
KSM2 260758Z 09010KT 21/17 A3009 RMK A01 T02090173  RH  080%=      5-min Rain = 0
KSM2 260759Z 08010KT 21/17 A3009 RMK A01 T02090173  RH  080%=      5-min Rain = 0
KSM2 260800Z 08010KT 21/17 A3009 RMK A01 T02080174  RH  081%=      5-min Rain = 0
KSM2 260801Z 08009KT 21/17 A3009 RMK A01 T02070173  RH  081%=      5-min Rain = 0
KSM2 260802Z 08009KT 21/17 A3009 RMK A01 T02070174  RH  081%=      5-min Rain = 0
KSM2 260803Z 08008KT 21/17 A301 RMK A01 T02060173  RH  081%=      5-min Rain = 0
KSM2 260804Z 08010KT 21/17 A301 RMK A01 T02060173  RH  081%=      5-min Rain = 0
KSM2 260805Z 09011KT 21/17 A301 RMK A01 T02060172  RH  081%=      5-min Rain = 0
KSM2 260806Z 11009KT 21/17 A301 RMK A01 T02080170  RH  079%=      5-min Rain = 0
KSM2 260807Z 11009G14KT 21/17 A301 RMK A01 T02110170  RH  078%=      5-min Rain = 0
KSM2 260808Z 12010KT 21/17 A301 RMK A01 T02130170  RH  077%=      5-min Rain = 0
KSM2 260809Z 12012KT 22/17 A301 RMK A01 T02150170  RH  075%=      5-min Rain = 0
KSM2 260810Z 13009KT 22/17 A301 RMK A01 T02170169  RH  074%=      5-min Rain = 0
KSM2 260811Z 13009KT 22/17 A301 RMK A01 T02190169  RH  073%=      5-min Rain = 0
KSM2 260812Z 14008KT 22/17 A301 RMK A01 T02200169  RH  072%=      5-min Rain = 0
KSM2 260813Z 13008KT 22/17 A301 RMK A01 T02210168  RH  072%=      5-min Rain = 0
KSM2 260814Z 14007KT 22/17 A301 RMK A01 T02210168  RH  072%=      5-min Rain = 0
KSM2 260815Z 15009KT 22/17 A301 RMK A01 T02210167  RH  072%=      5-min Rain = 0
KSM2 260816Z 15008KT 22/17 A301 RMK A01 T02220168  RH  071%=      5-min Rain = 0
KSM2 260817Z 15005KT 22/17 A301 RMK A01 T02220168  RH  071%=      5-min Rain = 0
KSM2 260818Z 14007KT 22/17 A301 RMK A01 T02220169  RH  072%=      5-min Rain = 0
KSM2 260819Z 13008KT 22/17 A301 RMK A01 T02220168  RH  072%=      5-min Rain = 0
KSM2 260820Z 13007KT 22/17 A301 RMK A01 T02210169  RH  072%=      5-min Rain = 0
KSM2 260821Z 13006KT 22/17 A301 RMK A01 T02200169  RH  072%=      5-min Rain = 0
KSM2 260822Z 11006KT 22/17 A301 RMK A01 T02190170  RH  073%=      5-min Rain = 0
KSM2 260823Z 11007KT 22/17 A301 RMK A01 T02170170  RH  074%=      5-min Rain = 0
KSM2 260824Z 10007KT 22/17 A301 RMK A01 T02150170  RH  076%=      5-min Rain = 0
KSM2 260825Z 11008KT 21/17 A301 RMK A01 T02130170  RH  077%=      5-min Rain = 0
KSM2 260826Z 10007KT 21/17 A301 RMK A01 T02110170  RH  077%=      5-min Rain = 0
KSM2 260827Z 11007KT 21/17 A301 RMK A01 T02110171  RH  078%=      5-min Rain = 0
KSM2 260828Z 11007KT 21/17 A301 RMK A01 T02100171  RH  078%=      5-min Rain = 0
KSM2 260829Z 11006KT 21/17 A301 RMK A01 T02090171  RH  079%=      5-min Rain = 0
KSM2 260830Z 11007KT 21/17 A301 RMK A01 T02090171  RH  079%=      5-min Rain = 0
KSM2 260831Z 11006KT 21/17 A301 RMK A01 T02080171  RH  079%=      5-min Rain = 0
KSM2 260832Z 12007KT 21/17 A301 RMK A01 T02080171  RH  079%=      5-min Rain = 0
KSM2 260833Z 12007KT 21/17 A301 RMK A01 T02090170  RH  079%=      5-min Rain = 0
KSM2 260834Z 12007KT 21/17 A301 RMK A01 T02090170  RH  078%=      5-min Rain = 0
KSM2 260835Z 13006KT 21/17 A301 RMK A01 T02100170  RH  078%=      5-min Rain = 0
KSM2 260836Z 12005KT 21/17 A3009 RMK A01 T02100170  RH  078%=      5-min Rain = 0
KSM2 260837Z 13006KT 21/17 A3009 RMK A01 T02100170  RH  078%=      5-min Rain = 0
KSM2 260838Z 12005KT 21/17 A3009 RMK A01 T02100170  RH  078%=      5-min Rain = 0
KSM2 260839Z 12005KT 21/17 A3009 RMK A01 T02100170  RH  078%=      5-min Rain = 0
KSM2 260840Z 13005KT 21/17 A3009 RMK A01 T02100170  RH  078%=      5-min Rain = 0
KSM2 260841Z 13007KT 21/17 A3009 RMK A01 T02100169  RH  077%=      5-min Rain = 0
KSM2 260842Z 12006KT 21/17 A3009 RMK A01 T02100169  RH  077%=      5-min Rain = 0
KSM2 260843Z 13006KT 21/17 A3009 RMK A01 T02100169  RH  077%=      5-min Rain = 0
KSM2 260844Z 14006KT 21/17 A3009 RMK A01 T02100169  RH  077%=      5-min Rain = 0
KSM2 260845Z 14007KT 21/17 A3009 RMK A01 T02100168  RH  077%=      5-min Rain = 0
KSM2 260846Z 14007KT 21/17 A3009 RMK A01 T02110168  RH  077%=      5-min Rain = 0
KSM2 260847Z 15006KT 21/17 A3009 RMK A01 T02120169  RH  076%=      5-min Rain = 0
KSM2 260848Z 15006KT 21/17 A3009 RMK A01 T02120169  RH  076%=      5-min Rain = 0
KSM2 260849Z 15007KT 21/17 A3009 RMK A01 T02120169  RH  077%=      5-min Rain = 0
KSM2 260850Z 14006KT 21/17 A3009 RMK A01 T02120169  RH  077%=      5-min Rain = 0
KSM2 260851Z 15005KT 21/17 A3009 RMK A01 T02110169  RH  077%=      5-min Rain = 0
KSM2 260852Z 14005KT 21/17 A3009 RMK A01 T02100169  RH  077%=      5-min Rain = 0
KSM2 260853Z 15006KT 21/17 A3009 RMK A01 T02110168  RH  077%=      5-min Rain = 0
KSM2 260854Z 14004KT 21/17 A3009 RMK A01 T02110169  RH  077%=      5-min Rain = 0
KSM2 260855Z 15005KT 21/17 A3009 RMK A01 T02110169  RH  077%=      5-min Rain = 0
KSM2 260856Z 14005KT 21/17 A3009 RMK A01 T02110169  RH  077%=      5-min Rain = 0
KSM2 260857Z 14004KT 21/17 A3009 RMK A01 T02110169  RH  077%=      5-min Rain = 0
KSM2 260858Z 14004KT 21/17 A3009 RMK A01 T02100169  RH  077%=      5-min Rain = 0
KSM2 260859Z 15004KT 21/17 A3009 RMK A01 T02100169  RH  078%=      5-min Rain = 0
KSM2 260900Z 15004KT 21/17 A3009 RMK A01 T02090169  RH  078%=      5-min Rain = 0
KSM2 260901Z 16006KT 21/17 A3008 RMK A01 T02080169  RH  078%=      5-min Rain = 0
KSM2 260902Z 16006KT 21/17 A3008 RMK A01 T02080169  RH  078%=      5-min Rain = 0
KSM2 260903Z 15006KT 21/17 A3008 RMK A01 T02090169  RH  078%=      5-min Rain = 0
KSM2 260904Z 16006KT 21/17 A3008 RMK A01 T02090169  RH  078%=      5-min Rain = 0
KSM2 260905Z 17006KT 21/17 A3008 RMK A01 T02090169  RH  078%=      5-min Rain = 0
KSM2 260906Z 17005KT 21/17 A3008 RMK A01 T02090170  RH  078%=      5-min Rain = 0
KSM2 260907Z 17006KT 21/17 A3008 RMK A01 T02090171  RH  078%=      5-min Rain = 0
KSM2 260908Z 18007KT 21/17 A3008 RMK A01 T02090171  RH  079%=      5-min Rain = 0
KSM2 260909Z 18007KT 21/17 A3008 RMK A01 T02090171  RH  079%=      5-min Rain = 0
KSM2 260910Z 18006KT 21/17 A3008 RMK A01 T02090171  RH  079%=      5-min Rain = 0
KSM2 260911Z 17007KT 21/17 A3008 RMK A01 T02080171  RH  079%=      5-min Rain = 0
KSM2 260912Z 18007KT 21/17 A3008 RMK A01 T02080171  RH  080%=      5-min Rain = 0
KSM2 260913Z 17007KT 21/17 A3007 RMK A01 T02080172  RH  080%=      5-min Rain = 0
KSM2 260914Z 18006KT 21/17 A3007 RMK A01 T02080172  RH  080%=      5-min Rain = 0
KSM2 260915Z 18007KT 21/17 A3007 RMK A01 T02070172  RH  080%=      5-min Rain = 0
KSM2 260916Z 17007KT 21/17 A3007 RMK A01 T02070172  RH  080%=      5-min Rain = 0
KSM2 260917Z 17008KT 21/17 A3007 RMK A01 T02070171  RH  080%=      5-min Rain = 0
KSM2 260918Z 18006KT 21/17 A3007 RMK A01 T02080172  RH  080%=      5-min Rain = 0
KSM2 260919Z 18007KT 21/17 A3007 RMK A01 T02080171  RH  080%=      5-min Rain = 0
KSM2 260920Z 18007KT 21/17 A3007 RMK A01 T02080172  RH  080%=      5-min Rain = 0
KSM2 260921Z 18008KT 21/17 A3007 RMK A01 T02080172  RH  080%=      5-min Rain = 0
KSM2 260922Z 17007KT 21/17 A3007 RMK A01 T02080172  RH  080%=      5-min Rain = 0
KSM2 260923Z 17007KT 21/17 A3007 RMK A01 T02080172  RH  080%=      5-min Rain = 0
KSM2 260924Z 17007KT 21/17 A3007 RMK A01 T02080171  RH  079%=      5-min Rain = 0
KSM2 260925Z 17008KT 21/17 A3007 RMK A01 T02090171  RH  079%=      5-min Rain = 0
KSM2 260926Z 17006KT 21/17 A3007 RMK A01 T02090171  RH  079%=      5-min Rain = 0
KSM2 260927Z 17007KT 21/17 A3007 RMK A01 T02090171  RH  079%=      5-min Rain = 0
KSM2 260928Z 17007KT 21/17 A3007 RMK A01 T02080171  RH  079%=      5-min Rain = 0
KSM2 260929Z 17006KT 21/17 A3007 RMK A01 T02080171  RH  080%=      5-min Rain = 0
KSM2 260930Z 17006KT 21/17 A3007 RMK A01 T02080171  RH  080%=      5-min Rain = 0
KSM2 260931Z 17006KT 21/17 A3007 RMK A01 T02070171  RH  080%=      5-min Rain = 0
KSM2 260932Z 18006KT 21/17 A3007 RMK A01 T02070171  RH  079%=      5-min Rain = 0
KSM2 260933Z 18007KT 21/17 A3007 RMK A01 T02070171  RH  079%=      5-min Rain = 0
KSM2 260934Z 18006KT 21/17 A3007 RMK A01 T02070171  RH  079%=      5-min Rain = 0
KSM2 260935Z 19006KT 21/17 A3007 RMK A01 T02070171  RH  080%=      5-min Rain = 0
KSM2 260936Z 19006KT 21/17 A3007 RMK A01 T02060172  RH  080%=      5-min Rain = 0
KSM2 260937Z 19007KT 21/17 A3007 RMK A01 T02060172  RH  081%=      5-min Rain = 0
KSM2 260938Z 19007KT 20/17 A3007 RMK A01 T02040172  RH  082%=      5-min Rain = 0
KSM2 260939Z 19007KT 20/17 A3007 RMK A01 T02040172  RH  082%=      5-min Rain = 0
KSM2 260940Z 19007KT 20/17 A3007 RMK A01 T02030172  RH  082%=      5-min Rain = 0
KSM2 260941Z 19007KT 20/17 A3007 RMK A01 T02030172  RH  082%=      5-min Rain = 0
KSM2 260942Z 19006KT 20/17 A3007 RMK A01 T02020172  RH  083%=      5-min Rain = 0
KSM2 260943Z 19006KT 20/17 A3007 RMK A01 T02020171  RH  082%=      5-min Rain = 0
KSM2 260944Z 18005KT 20/17 A3008 RMK A01 T02020171  RH  082%=      5-min Rain = 0
KSM2 260945Z 18004KT 20/17 A3008 RMK A01 T02020172  RH  083%=      5-min Rain = 0
KSM2 260946Z 18005KT 20/17 A3008 RMK A01 T02010172  RH  083%=      5-min Rain = 0
KSM2 260947Z 17005KT 20/17 A3008 RMK A01 T02010172  RH  083%=      5-min Rain = 0
KSM2 260948Z 17005KT 20/17 A3008 RMK A01 T02010171  RH  083%=      5-min Rain = 0
KSM2 260949Z 16006KT 20/17 A3008 RMK A01 T02010170  RH  082%=      5-min Rain = 0
KSM2 260950Z 16005KT 20/17 A3008 RMK A01 T02020170  RH  082%=      5-min Rain = 0
KSM2 260951Z 15004KT 20/17 A3008 RMK A01 T02020171  RH  082%=      5-min Rain = 0
KSM2 260952Z 16005KT 20/17 A3008 RMK A01 T02020171  RH  082%=      5-min Rain = 0
KSM2 260953Z 15006KT 20/17 A3009 RMK A01 T02020170  RH  082%=      5-min Rain = 0
KSM2 260954Z 15005KT 20/17 A3009 RMK A01 T02020170  RH  082%=      5-min Rain = 0
KSM2 260955Z 16007KT 20/17 A3009 RMK A01 T02020170  RH  081%=      5-min Rain = 0
KSM2 260956Z 16006KT 20/17 A3009 RMK A01 T02030169  RH  081%=      5-min Rain = 0
KSM2 260957Z 15006KT 20/17 A3009 RMK A01 T02040169  RH  080%=      5-min Rain = 0
KSM2 260958Z 16005KT 21/17 A3009 RMK A01 T02050169  RH  080%=      5-min Rain = 0
KSM2 260959Z 16006KT 20/17 A3009 RMK A01 T02040170  RH  080%=      5-min Rain = 0
KSM2 261000Z 17006KT 20/17 A3009 RMK A01 T02040170  RH  080%=      5-min Rain = 0
KSM2 261001Z 17006KT 20/17 A3009 RMK A01 T02040169  RH  080%=      5-min Rain = 0
KSM2 261002Z 16006KT 20/17 A3009 RMK A01 T02040169  RH  080%=      5-min Rain = 0
KSM2 261003Z 17006KT 20/17 A3008 RMK A01 T02040169  RH  080%=      5-min Rain = 0
KSM2 261004Z 17006KT 20/17 A3008 RMK A01 T02040170  RH  080%=      5-min Rain = 0
KSM2 261005Z 17007KT 20/17 A3008 RMK A01 T02040169  RH  080%=      5-min Rain = 0
KSM2 261006Z 17006KT 20/17 A3008 RMK A01 T02040169  RH  080%=      5-min Rain = 0
KSM2 261007Z 17007KT 20/17 A3008 RMK A01 T02040169  RH  080%=      5-min Rain = 0
KSM2 261008Z 17007KT 20/17 A3008 RMK A01 T02040170  RH  081%=      5-min Rain = 0
KSM2 261009Z 18007KT 20/17 A3008 RMK A01 T02040169  RH  081%=      5-min Rain = 0
KSM2 261010Z 18008KT 20/17 A3008 RMK A01 T02030169  RH  081%=      5-min Rain = 0
KSM2 261011Z 17008KT 20/17 A3008 RMK A01 T02040169  RH  081%=      5-min Rain = 0
KSM2 261012Z 17007KT 20/17 A3008 RMK A01 T02030169  RH  081%=      5-min Rain = 0
KSM2 261013Z 17007KT 20/17 A3008 RMK A01 T02030169  RH  081%=      5-min Rain = 0
KSM2 261014Z 17007KT 20/17 A3008 RMK A01 T02030169  RH  081%=      5-min Rain = 0
KSM2 261015Z 17007KT 20/17 A3008 RMK A01 T02030169  RH  081%=      5-min Rain = 0
KSM2 261016Z 17007KT 20/17 A3008 RMK A01 T02030169  RH  081%=      5-min Rain = 0
KSM2 261017Z 17007KT 20/17 A3008 RMK A01 T02030169  RH  081%=      5-min Rain = 0
KSM2 261018Z 17006KT 20/17 A3008 RMK A01 T02030169  RH  081%=      5-min Rain = 0
KSM2 261019Z 17006KT 20/17 A3009 RMK A01 T02030169  RH  081%=      5-min Rain = 0
KSM2 261020Z 16007KT 20/17 A3009 RMK A01 T02030169  RH  081%=      5-min Rain = 0
KSM2 261021Z 17007KT 20/17 A3009 RMK A01 T02020169  RH  081%=      5-min Rain = 0
KSM2 261022Z 17007KT 20/17 A3009 RMK A01 T02020169  RH  081%=      5-min Rain = 0
KSM2 261023Z 17007KT 20/17 A3009 RMK A01 T02020169  RH  081%=      5-min Rain = 0
KSM2 261024Z 17007KT 20/17 A3008 RMK A01 T02020169  RH  081%=      5-min Rain = 0
KSM2 261025Z 18008KT 20/17 A3008 RMK A01 T02020169  RH  081%=      5-min Rain = 0
KSM2 261026Z 18007KT 20/17 A3008 RMK A01 T02020168  RH  081%=      5-min Rain = 0
KSM2 261027Z 18007KT 20/17 A3008 RMK A01 T02020168  RH  081%=      5-min Rain = 0
KSM2 261028Z 19008KT 20/17 A3008 RMK A01 T02020169  RH  081%=      5-min Rain = 0
KSM2 261029Z 19008KT 20/17 A3008 RMK A01 T02020169  RH  081%=      5-min Rain = 0
KSM2 261030Z 18008KT 20/17 A3008 RMK A01 T02010170  RH  082%=      5-min Rain = 0
KSM2 261031Z 19009KT 20/17 A3008 RMK A01 T02000170  RH  083%=      5-min Rain = 0
KSM2 261032Z 19009KT 20/17 A3008 RMK A01 T01990170  RH  083%=      5-min Rain = 0
KSM2 261033Z 19008KT 20/17 A3008 RMK A01 T01990170  RH  083%=      5-min Rain = 0
KSM2 261034Z 19008KT 20/17 A3008 RMK A01 T01980170  RH  084%=      5-min Rain = 0
KSM2 261035Z 19008KT 20/17 A3008 RMK A01 T01980170  RH  084%=      5-min Rain = 0
KSM2 261036Z 19007KT 20/17 A3008 RMK A01 T01980170  RH  084%=      5-min Rain = 0
KSM2 261037Z 18006KT 20/17 A3008 RMK A01 T01970170  RH  084%=      5-min Rain = 0
KSM2 261038Z 18006KT 20/17 A3009 RMK A01 T01970170  RH  084%=      5-min Rain = 0
KSM2 261039Z 17006KT 20/17 A3009 RMK A01 T01970170  RH  084%=      5-min Rain = 0
KSM2 261040Z 18007KT 20/17 A3009 RMK A01 T01960169  RH  084%=      5-min Rain = 0
KSM2 261041Z 17006KT 20/17 A3009 RMK A01 T01970169  RH  084%=      5-min Rain = 0
KSM2 261042Z 17006KT 20/17 A3009 RMK A01 T01970169  RH  083%=      5-min Rain = 0
KSM2 261043Z 17006KT 20/17 A3009 RMK A01 T01980169  RH  083%=      5-min Rain = 0
KSM2 261044Z 18006KT 20/17 A3009 RMK A01 T01980169  RH  083%=      5-min Rain = 0
KSM2 261045Z 18005KT 20/17 A3009 RMK A01 T01990169  RH  083%=      5-min Rain = 0
KSM2 261046Z 18008KT 20/17 A3009 RMK A01 T01990169  RH  083%=      5-min Rain = 0
KSM2 261047Z 18006KT 20/17 A3009 RMK A01 T01980169  RH  083%=      5-min Rain = 0
KSM2 261048Z 19007KT 20/17 A3008 RMK A01 T01980170  RH  084%=      5-min Rain = 0
KSM2 261049Z 19008KT 20/17 A3008 RMK A01 T01980170  RH  084%=      5-min Rain = 0
KSM2 261050Z 19008KT 20/17 A3008 RMK A01 T01970170  RH  084%=      5-min Rain = 0
KSM2 261051Z 19008KT 20/17 A3008 RMK A01 T01960169  RH  084%=      5-min Rain = 0
KSM2 261052Z 19008KT 20/17 A3008 RMK A01 T01960170  RH  084%=      5-min Rain = 0
KSM2 261053Z 19008KT 20/17 A3008 RMK A01 T01970170  RH  085%=      5-min Rain = 0
KSM2 261054Z 19007KT 20/17 A3008 RMK A01 T01960170  RH  084%=      5-min Rain = 0
KSM2 261055Z 19007KT 20/17 A3008 RMK A01 T01970169  RH  084%=      5-min Rain = 0
KSM2 261056Z 18007KT 20/17 A3008 RMK A01 T01960170  RH  084%=      5-min Rain = 0
KSM2 261057Z 18006KT 20/17 A3009 RMK A01 T01960170  RH  085%=      5-min Rain = 0
KSM2 261058Z 18006KT 20/17 A3009 RMK A01 T01960170  RH  085%=      5-min Rain = 0
KSM2 261059Z 19007KT 20/17 A3009 RMK A01 T01950170  RH  085%=      5-min Rain = 0
KSM2 261100Z 19007KT 20/17 A3009 RMK A01 T01950170  RH  085%=      5-min Rain = 0
KSM2 261101Z 19008KT 20/17 A3009 RMK A01 T01950170  RH  085%=      5-min Rain = 0
KSM2 261102Z 19008KT 20/17 A3009 RMK A01 T01950169  RH  085%=      5-min Rain = 0
KSM2 261103Z 19008KT 20/17 A3009 RMK A01 T01950169  RH  085%=      5-min Rain = 0
KSM2 261104Z 19008KT 20/17 A3009 RMK A01 T01950170  RH  085%=      5-min Rain = 0
KSM2 261105Z 19008KT 20/17 A3009 RMK A01 T01950170  RH  085%=      5-min Rain = 0
KSM2 261106Z 18009KT 20/17 A3009 RMK A01 T01950170  RH  085%=      5-min Rain = 0
KSM2 261107Z 19007KT 20/17 A3009 RMK A01 T01950169  RH  085%=      5-min Rain = 0
KSM2 261108Z 18007KT 20/17 A3009 RMK A01 T01950170  RH  085%=      5-min Rain = 0
KSM2 261109Z 17007KT 20/17 A3009 RMK A01 T01950170  RH  085%=      5-min Rain = 0
KSM2 261110Z 18008KT 19/17 A3009 RMK A01 T01940169  RH  085%=      5-min Rain = 0
KSM2 261111Z 18007KT 19/17 A3009 RMK A01 T01940169  RH  085%=      5-min Rain = 0
KSM2 261112Z 18006KT 20/17 A3009 RMK A01 T01950169  RH  085%=      5-min Rain = 0
KSM2 261113Z 18006KT 20/17 A3009 RMK A01 T01950169  RH  085%=      5-min Rain = 0
KSM2 261114Z 18007KT 20/17 A3009 RMK A01 T01950169  RH  085%=      5-min Rain = 0
KSM2 261115Z 18008KT 20/17 A3009 RMK A01 T01950170  RH  085%=      5-min Rain = 0
KSM2 261116Z 18007KT 20/17 A3009 RMK A01 T01950169  RH  085%=      5-min Rain = 0
KSM2 261117Z 18008KT 20/17 A3009 RMK A01 T01950169  RH  085%=      5-min Rain = 0
KSM2 261118Z 18008KT 20/17 A3009 RMK A01 T01950169  RH  085%=      5-min Rain = 0
KSM2 261119Z 18008KT 20/17 A3009 RMK A01 T01950169  RH  085%=      5-min Rain = 0
KSM2 261120Z 18008KT 20/17 A3009 RMK A01 T01950168  RH  084%=      5-min Rain = 0
KSM2 261121Z 18008KT 20/17 A3009 RMK A01 T01950168  RH  084%=      5-min Rain = 0
KSM2 261122Z 19008KT 20/17 A3009 RMK A01 T01950168  RH  084%=      5-min Rain = 0
KSM2 261123Z 19008KT 20/17 A3009 RMK A01 T01950169  RH  085%=      5-min Rain = 0
KSM2 261124Z 19008KT 20/17 A3009 RMK A01 T01950169  RH  085%=      5-min Rain = 0
KSM2 261125Z 19009KT 19/17 A3009 RMK A01 T01940169  RH  086%=      5-min Rain = 0
KSM2 261126Z 19009KT 19/17 A3009 RMK A01 T01930169  RH  086%=      5-min Rain = 0
KSM2 261127Z 19009KT 19/17 A3009 RMK A01 T01930169  RH  086%=      5-min Rain = 0
KSM2 261128Z 19008KT 19/17 A3009 RMK A01 T01930169  RH  086%=      5-min Rain = 0
KSM2 261129Z 19007KT 19/17 A3009 RMK A01 T01930169  RH  086%=      5-min Rain = 0
KSM2 261130Z 19008KT 19/17 A3009 RMK A01 T01930169  RH  086%=      5-min Rain = 0
KSM2 261131Z 19008KT 19/17 A3009 RMK A01 T01930169  RH  086%=      5-min Rain = 0
KSM2 261132Z 18007KT 19/17 A3009 RMK A01 T01920169  RH  086%=      5-min Rain = 0
KSM2 261133Z 18006KT 19/17 A301 RMK A01 T01920169  RH  086%=      5-min Rain = 0
KSM2 261134Z 19008KT 19/17 A301 RMK A01 T01920169  RH  086%=      5-min Rain = 0
KSM2 261135Z 19006KT 19/17 A301 RMK A01 T01930169  RH  086%=      5-min Rain = 0
KSM2 261136Z 19007KT 19/17 A301 RMK A01 T01920169  RH  086%=      5-min Rain = 0
KSM2 261137Z 18005KT 19/17 A301 RMK A01 T01920169  RH  086%=      5-min Rain = 0
KSM2 261138Z 18005KT 19/17 A301 RMK A01 T01920169  RH  087%=      5-min Rain = 0
KSM2 261139Z 18006KT 19/17 A301 RMK A01 T01920169  RH  087%=      5-min Rain = 0
KSM2 261140Z 18005KT 19/17 A301 RMK A01 T01920169  RH  087%=      5-min Rain = 0
KSM2 261141Z 18005KT 19/17 A301 RMK A01 T01920170  RH  087%=      5-min Rain = 0
KSM2 261142Z 18005KT 19/17 A301 RMK A01 T01920170  RH  087%=      5-min Rain = 0
KSM2 261143Z 18005KT 19/17 A301 RMK A01 T01910169  RH  087%=      5-min Rain = 0
KSM2 261144Z 18005KT 19/17 A301 RMK A01 T01910169  RH  087%=      5-min Rain = 0
KSM2 261145Z 18006KT 19/17 A301 RMK A01 T01910169  RH  087%=      5-min Rain = 0
KSM2 261146Z 18006KT 19/17 A301 RMK A01 T01910169  RH  087%=      5-min Rain = 0
KSM2 261147Z 17006KT 19/17 A301 RMK A01 T01910169  RH  087%=      5-min Rain = 0
KSM2 261148Z 17007KT 19/17 A301 RMK A01 T01920169  RH  086%=      5-min Rain = 0
KSM2 261149Z 18008KT 19/17 A301 RMK A01 T01930169  RH  086%=      5-min Rain = 0
KSM2 261150Z 18009KT 19/17 A301 RMK A01 T01930169  RH  086%=      5-min Rain = 0
KSM2 261151Z 18008KT 19/17 A301 RMK A01 T01940169  RH  085%=      5-min Rain = 0
KSM2 261152Z 18007KT 20/17 A301 RMK A01 T01950169  RH  085%=      5-min Rain = 0
KSM2 261153Z 18008KT 20/17 A301 RMK A01 T01950169  RH  085%=      5-min Rain = 0
KSM2 261154Z 18007KT 19/17 A301 RMK A01 T01940169  RH  085%=      5-min Rain = 0
KSM2 261155Z 18008KT 19/17 A301 RMK A01 T01940169  RH  086%=      5-min Rain = 0
KSM2 261156Z 18008KT 19/17 A301 RMK A01 T01930169  RH  086%=      5-min Rain = 0
KSM2 261157Z 18008KT 19/17 A301 RMK A01 T01930169  RH  086%=      5-min Rain = 0
KSM2 261158Z 18008KT 19/17 A301 RMK A01 T01930169  RH  086%=      5-min Rain = 0
KSM2 261159Z 18007KT 19/17 A301 RMK A01 T01940169  RH  085%=      5-min Rain = 0
KSM2 261200Z 18008KT 19/17 A301 RMK A01 T01940169  RH  085%=      5-min Rain = 0
KSM2 261201Z 17009KT 19/17 A301 RMK A01 T01940169  RH  085%=      5-min Rain = 0
KSM2 261202Z 18007KT 19/17 A301 RMK A01 T01940168  RH  085%=      5-min Rain = 0
KSM2 261203Z 17007KT 19/17 A301 RMK A01 T01940168  RH  085%=      5-min Rain = 0
KSM2 261204Z 17006KT 19/17 A301 RMK A01 T01940169  RH  085%=      5-min Rain = 0
KSM2 261205Z 18007KT 19/17 A301 RMK A01 T01940169  RH  085%=      5-min Rain = 0
KSM2 261206Z 18008KT 19/17 A301 RMK A01 T01940169  RH  085%=      5-min Rain = 0
KSM2 261207Z 18007KT 19/17 A3011 RMK A01 T01940168  RH  085%=      5-min Rain = 0
KSM2 261208Z 18007KT 19/17 A3011 RMK A01 T01940169  RH  085%=      5-min Rain = 0
KSM2 261209Z 18007KT 19/17 A3011 RMK A01 T01940169  RH  085%=      5-min Rain = 0
KSM2 261210Z 18008KT 19/17 A3011 RMK A01 T01940169  RH  085%=      5-min Rain = 0
KSM2 261211Z 18007KT 19/17 A3011 RMK A01 T01940169  RH  086%=      5-min Rain = 0
KSM2 261212Z 18006KT 19/17 A301 RMK A01 T01940169  RH  086%=      5-min Rain = 0
KSM2 261213Z 18007KT 19/17 A301 RMK A01 T01940170  RH  086%=      5-min Rain = 0
KSM2 261214Z 18006KT 19/17 A301 RMK A01 T01940170  RH  086%=      5-min Rain = 0
KSM2 261215Z 18006KT 19/17 A3011 RMK A01 T01940171  RH  086%=      5-min Rain = 0
KSM2 261216Z 17006KT 19/17 A3011 RMK A01 T01940170  RH  086%=      5-min Rain = 0
KSM2 261217Z 17007KT 19/17 A3011 RMK A01 T01940170  RH  086%=      5-min Rain = 0
KSM2 261218Z 17007KT 19/17 A3011 RMK A01 T01940169  RH  086%=      5-min Rain = 0
KSM2 261219Z 18007KT 19/17 A3011 RMK A01 T01940169  RH  085%=      5-min Rain = 0
KSM2 261220Z 18007KT 19/17 A3011 RMK A01 T01940169  RH  085%=      5-min Rain = 0
KSM2 261221Z 18007KT 20/17 A3011 RMK A01 T01950169  RH  085%=      5-min Rain = 0
KSM2 261222Z 18006KT 20/17 A3011 RMK A01 T01950169  RH  085%=      5-min Rain = 0
KSM2 261223Z 18007KT 20/17 A3011 RMK A01 T01950169  RH  085%=      5-min Rain = 0
KSM2 261224Z 18008KT 20/17 A3011 RMK A01 T01950169  RH  085%=      5-min Rain = 0
KSM2 261225Z 18007KT 20/17 A3011 RMK A01 T01950170  RH  085%=      5-min Rain = 0
KSM2 261226Z 18007KT 20/17 A3011 RMK A01 T01950170  RH  085%=      5-min Rain = 0
KSM2 261227Z 17006KT 20/17 A3011 RMK A01 T01960170  RH  085%=      5-min Rain = 0
KSM2 261228Z 17007KT 20/17 A3011 RMK A01 T01960170  RH  085%=      5-min Rain = 0
KSM2 261229Z 18005KT 20/17 A3011 RMK A01 T01960170  RH  085%=      5-min Rain = 0
KSM2 261230Z 18007KT 20/17 A3011 RMK A01 T01960170  RH  085%=      5-min Rain = 0
KSM2 261231Z 18007KT 20/17 A3011 RMK A01 T01960169  RH  085%=      5-min Rain = 0
KSM2 261232Z 18008KT 20/17 A3011 RMK A01 T01960170  RH  085%=      5-min Rain = 0
KSM2 261233Z 19007KT 20/17 A3011 RMK A01 T01960170  RH  085%=      5-min Rain = 0
KSM2 261234Z 19008KT 20/17 A3011 RMK A01 T01960170  RH  085%=      5-min Rain = 0
KSM2 261235Z 19008KT 20/17 A3011 RMK A01 T01960170  RH  085%=      5-min Rain = 0
KSM2 261236Z 19008KT 20/17 A3011 RMK A01 T01960171  RH  086%=      5-min Rain = 0
KSM2 261237Z 18007KT 20/17 A3011 RMK A01 T01960171  RH  086%=      5-min Rain = 0
KSM2 261238Z 19007KT 20/17 A3011 RMK A01 T01960172  RH  086%=      5-min Rain = 0
KSM2 261239Z 19007KT 20/17 A3011 RMK A01 T01960172  RH  086%=      5-min Rain = 0
KSM2 261240Z 19007KT 20/17 A3011 RMK A01 T01970173  RH  086%=      5-min Rain = 0
KSM2 261241Z 19007KT 20/17 A3011 RMK A01 T01970173  RH  086%=      5-min Rain = 0
KSM2 261242Z 19008KT 20/17 A3011 RMK A01 T01970173  RH  086%=      5-min Rain = 0
KSM2 261243Z 19007KT 20/17 A3011 RMK A01 T01980173  RH  085%=      5-min Rain = 0
KSM2 261244Z 18005KT 20/17 A3011 RMK A01 T01980174  RH  086%=      5-min Rain = 0
KSM2 261245Z 18005KT 20/17 A3011 RMK A01 T01980174  RH  086%=      5-min Rain = 0
KSM2 261246Z 18008KT 20/17 A3011 RMK A01 T01980173  RH  086%=      5-min Rain = 0
KSM2 261247Z 17006KT 20/17 A3011 RMK A01 T01990173  RH  085%=      5-min Rain = 0
KSM2 261248Z 18006KT 20/17 A3011 RMK A01 T01990173  RH  085%=      5-min Rain = 0
KSM2 261249Z 17007KT 20/17 A3011 RMK A01 T01990173  RH  085%=      5-min Rain = 0
KSM2 261250Z 18006KT 20/17 A3012 RMK A01 T02000173  RH  085%=      5-min Rain = 0
KSM2 261251Z 17006KT 20/17 A3012 RMK A01 T02000173  RH  084%=      5-min Rain = 0
KSM2 261252Z 17005KT 20/17 A3012 RMK A01 T02000173  RH  084%=      5-min Rain = 0
KSM2 261253Z 17005KT 20/17 A3012 RMK A01 T02010174  RH  085%=      5-min Rain = 0
KSM2 261254Z 18008KT 20/17 A3012 RMK A01 T02010173  RH  084%=      5-min Rain = 0
KSM2 261255Z 18008KT 20/17 A3012 RMK A01 T02010173  RH  084%=      5-min Rain = 0
KSM2 261256Z 17007KT 20/17 A3012 RMK A01 T02010173  RH  084%=      5-min Rain = 0
KSM2 261257Z 17007KT 20/17 A3012 RMK A01 T02010173  RH  084%=      5-min Rain = 0
KSM2 261258Z 18006KT 20/17 A3012 RMK A01 T02020174  RH  084%=      5-min Rain = 0
KSM2 261259Z 17008KT 20/17 A3012 RMK A01 T02020174  RH  084%=      5-min Rain = 0
KSM2 261300Z 17007KT 20/17 A3012 RMK A01 T02020173  RH  084%=      5-min Rain = 0
KSM2 261301Z 17006KT 20/17 A3012 RMK A01 T02020174  RH  084%=      5-min Rain = 0
KSM2 261302Z 17007KT 20/17 A3012 RMK A01 T02030174  RH  083%=      5-min Rain = 0
KSM2 261303Z 17007KT 20/17 A3012 RMK A01 T02030174  RH  083%=      5-min Rain = 0
KSM2 261304Z 18007KT 20/17 A3012 RMK A01 T02030174  RH  083%=      5-min Rain = 0
KSM2 261305Z 17008KT 20/17 A3012 RMK A01 T02030173  RH  083%=      5-min Rain = 0
KSM2 261306Z 18009KT 20/17 A3012 RMK A01 T02040174  RH  083%=      5-min Rain = 0
KSM2 261307Z 18007KT 20/17 A3012 RMK A01 T02030174  RH  083%=      5-min Rain = 0
KSM2 261308Z 17008KT 20/18 A3012 RMK A01 T02040175  RH  083%=      5-min Rain = 0
KSM2 261309Z 17008KT 20/18 A3012 RMK A01 T02040175  RH  083%=      5-min Rain = 0
KSM2 261310Z 17008KT 21/18 A3012 RMK A01 T02050175  RH  083%=      5-min Rain = 0
KSM2 261311Z 17009KT 21/18 A3013 RMK A01 T02050175  RH  083%=      5-min Rain = 0
KSM2 261312Z 17007KT 21/18 A3013 RMK A01 T02050175  RH  083%=      5-min Rain = 0
KSM2 261313Z 17008KT 21/18 A3013 RMK A01 T02050175  RH  083%=      5-min Rain = 0
KSM2 261314Z 17007KT 21/18 A3013 RMK A01 T02060175  RH  083%=      5-min Rain = 0
KSM2 261315Z 17007KT 21/18 A3013 RMK A01 T02060175  RH  083%=      5-min Rain = 0
KSM2 261316Z 17008KT 21/18 A3013 RMK A01 T02060175  RH  082%=      5-min Rain = 0
KSM2 261317Z 17006KT 21/18 A3013 RMK A01 T02060176  RH  083%=      5-min Rain = 0
KSM2 261318Z 17008KT 21/18 A3013 RMK A01 T02070176  RH  083%=      5-min Rain = 0
KSM2 261319Z 17008KT 21/18 A3013 RMK A01 T02070175  RH  082%=      5-min Rain = 0
KSM2 261320Z 17008KT 21/18 A3013 RMK A01 T02070177  RH  083%=      5-min Rain = 0
KSM2 261321Z 17010KT 21/18 A3013 RMK A01 T02080175  RH  082%=      5-min Rain = 0
KSM2 261322Z 17009KT 21/18 A3013 RMK A01 T02080175  RH  082%=      5-min Rain = 0
KSM2 261323Z 17008KT 21/18 A3013 RMK A01 T02080176  RH  082%=      5-min Rain = 0
KSM2 261324Z 17010KT 21/18 A3013 RMK A01 T02090176  RH  081%=      5-min Rain = 0
KSM2 261325Z 17009KT 21/18 A3013 RMK A01 T02090176  RH  082%=      5-min Rain = 0
KSM2 261326Z 18010KT 21/18 A3013 RMK A01 T02090176  RH  081%=      5-min Rain = 0
KSM2 261327Z 18008KT 21/18 A3013 RMK A01 T02100177  RH  082%=      5-min Rain = 0
KSM2 261328Z 19008KT 21/18 A3013 RMK A01 T02100178  RH  082%=      5-min Rain = 0
KSM2 261329Z 18009KT 21/18 A3013 RMK A01 T02100178  RH  082%=      5-min Rain = 0
KSM2 261330Z 18010KT 21/18 A3013 RMK A01 T02110178  RH  081%=      5-min Rain = 0
KSM2 261331Z 18010KT 21/18 A3013 RMK A01 T02110177  RH  081%=      5-min Rain = 0
KSM2 261332Z 18009KT 21/18 A3013 RMK A01 T02110178  RH  082%=      5-min Rain = 0
KSM2 261333Z 17007KT 21/18 A3013 RMK A01 T02110180  RH  082%=      5-min Rain = 0
KSM2 261334Z 18006KT 21/18 A3013 RMK A01 T02130182  RH  082%=      5-min Rain = 0
KSM2 261335Z 18008KT 21/18 A3013 RMK A01 T02140182  RH  082%=      5-min Rain = 0
KSM2 261336Z 17010KT 21/18 A3013 RMK A01 T02140179  RH  080%=      5-min Rain = 0
KSM2 261337Z 18010KT 21/18 A3013 RMK A01 T02140179  RH  080%=      5-min Rain = 0
KSM2 261338Z 17010KT 21/18 A3013 RMK A01 T02140179  RH  080%=      5-min Rain = 0
KSM2 261339Z 18009KT 22/18 A3013 RMK A01 T02150179  RH  080%=      5-min Rain = 0
KSM2 261340Z 19009KT 22/18 A3013 RMK A01 T02150180  RH  080%=      5-min Rain = 0
KSM2 261341Z 18009KT 22/18 A3013 RMK A01 T02150181  RH  081%=      5-min Rain = 0
KSM2 261342Z 18010KT 22/18 A3013 RMK A01 T02160180  RH  080%=      5-min Rain = 0
KSM2 261343Z 18009KT 22/18 A3013 RMK A01 T02160181  RH  081%=      5-min Rain = 0
KSM2 261344Z 18011KT 22/18 A3013 RMK A01 T02170182  RH  081%=      5-min Rain = 0
KSM2 261345Z 18010KT 22/18 A3013 RMK A01 T02170180  RH  079%=      5-min Rain = 0
KSM2 261346Z 19012KT 22/18 A3013 RMK A01 T02170180  RH  079%=      5-min Rain = 0
KSM2 261347Z 19010KT 22/18 A3014 RMK A01 T02170180  RH  079%=      5-min Rain = 0
KSM2 261348Z 17010KT 22/18 A3014 RMK A01 T02170181  RH  080%=      5-min Rain = 0
KSM2 261349Z 17010KT 22/18 A3014 RMK A01 T02180179  RH  079%=      5-min Rain = 0
KSM2 261350Z 17009G15KT 22/18 A3014 RMK A01 T02180181  RH  079%=      5-min Rain = 0
KSM2 261351Z 18011KT 22/18 A3014 RMK A01 T02180179  RH  079%=      5-min Rain = 0
KSM2 261352Z 18009KT 22/18 A3014 RMK A01 T02180183  RH  080%=      5-min Rain = 0
KSM2 261353Z 17010KT 22/18 A3014 RMK A01 T02190181  RH  079%=      5-min Rain = 0
KSM2 261354Z 18009KT 22/18 A3014 RMK A01 T02200181  RH  079%=      5-min Rain = 0
KSM2 261355Z 18011KT 22/18 A3014 RMK A01 T02200181  RH  078%=      5-min Rain = 0
KSM2 261356Z 18009KT 22/18 A3014 RMK A01 T02200181  RH  078%=      5-min Rain = 0
KSM2 261357Z 18009KT 22/18 A3014 RMK A01 T02210180  RH  078%=      5-min Rain = 0
KSM2 261358Z 18011KT 22/18 A3015 RMK A01 T02210180  RH  077%=      5-min Rain = 0
KSM2 261359Z 18010KT 22/18 A3015 RMK A01 T02210181  RH  078%=      5-min Rain = 0
KSM2 261400Z 19013KT 22/18 A3015 RMK A01 T02220181  RH  078%=      5-min Rain = 0
KSM2 261401Z 18011KT 22/18 A3015 RMK A01 T02210182  RH  078%=      5-min Rain = 0
KSM2 261402Z 18009KT 22/18 A3015 RMK A01 T02210184  RH  079%=      5-min Rain = 0
KSM2 261403Z 17011KT 22/18 A3015 RMK A01 T02230180  RH  077%=      5-min Rain = 0
KSM2 261404Z 19011KT 22/18 A3015 RMK A01 T02230182  RH  077%=      5-min Rain = 0
KSM2 261405Z 18012KT 22/18 A3015 RMK A01 T02230183  RH  078%=      5-min Rain = 0
KSM2 261406Z 18013KT 22/18 A3015 RMK A01 T02230181  RH  077%=      5-min Rain = 0
KSM2 261407Z 18010KT 22/18 A3015 RMK A01 T02230182  RH  077%=      5-min Rain = 0
KSM2 261408Z 19013KT 22/18 A3015 RMK A01 T02240181  RH  077%=      5-min Rain = 0
KSM2 261409Z 18008KT 22/19 A3015 RMK A01 T02240185  RH  078%=      5-min Rain = 0
KSM2 261410Z 19009KT 23/19 A3015 RMK A01 T02250186  RH  078%=      5-min Rain = 0
KSM2 261411Z 19012KT 23/18 A3015 RMK A01 T02270182  RH  076%=      5-min Rain = 0
KSM2 261412Z 19010KT 23/18 A3015 RMK A01 T02260182  RH  076%=      5-min Rain = 0
KSM2 261413Z 18009KT 23/19 A3015 RMK A01 T02260185  RH  077%=      5-min Rain = 0
KSM2 261414Z 18008KT 23/18 A3015 RMK A01 T02270184  RH  076%=      5-min Rain = 0
KSM2 261415Z 18011KT 23/18 A3015 RMK A01 T02270183  RH  076%=      5-min Rain = 0
KSM2 261416Z 18010KT 23/18 A3015 RMK A01 T02280183  RH  076%=      5-min Rain = 0
KSM2 261417Z 17012KT 23/18 A3015 RMK A01 T02280181  RH  075%=      5-min Rain = 0
KSM2 261418Z 18011KT 23/18 A3015 RMK A01 T02280182  RH  075%=      5-min Rain = 0
KSM2 261419Z 18011KT 23/18 A3015 RMK A01 T02280182  RH  075%=      5-min Rain = 0
KSM2 261420Z 17010KT 23/18 A3015 RMK A01 T02280182  RH  075%=      5-min Rain = 0
KSM2 261421Z 18014KT 23/18 A3015 RMK A01 T02290180  RH  074%=      5-min Rain = 0
KSM2 261422Z 18011KT 23/18 A3015 RMK A01 T02290182  RH  075%=      5-min Rain = 0
KSM2 261423Z 19011KT 23/18 A3015 RMK A01 T02290184  RH  076%=      5-min Rain = 0
KSM2 261424Z 18011KT 23/18 A3015 RMK A01 T02310184  RH  075%=      5-min Rain = 0
KSM2 261425Z 19012KT 23/18 A3015 RMK A01 T02310182  RH  074%=      5-min Rain = 0
KSM2 261426Z 19011KT 23/18 A3015 RMK A01 T02310181  RH  073%=      5-min Rain = 0
KSM2 261427Z 19012KT 23/18 A3015 RMK A01 T02300184  RH  075%=      5-min Rain = 0
KSM2 261428Z 18009KT 23/19 A3015 RMK A01 T02310186  RH  076%=      5-min Rain = 0
KSM2 261429Z 18008KT 23/19 A3015 RMK A01 T02330186  RH  075%=      5-min Rain = 0
KSM2 261430Z 18011KT 24/18 A3015 RMK A01 T02350184  RH  073%=      5-min Rain = 0
KSM2 261431Z 19013KT 24/18 A3015 RMK A01 T02350181  RH  072%=      5-min Rain = 0
KSM2 261432Z 20013KT 23/18 A3015 RMK A01 T02330182  RH  073%=      5-min Rain = 0
KSM2 261433Z 19011KT 23/18 A3015 RMK A01 T02330184  RH  074%=      5-min Rain = 0
KSM2 261434Z 18008KT 23/18 A3015 RMK A01 T02330184  RH  074%=      5-min Rain = 0
KSM2 261435Z 17009G15KT 24/18 A3015 RMK A01 T02350184  RH  073%=      5-min Rain = 0
KSM2 261436Z 17011KT 24/18 A3015 RMK A01 T02360182  RH  072%=      5-min Rain = 0
KSM2 261437Z 17010KT 24/18 A3015 RMK A01 T02350182  RH  072%=      5-min Rain = 0
KSM2 261438Z 17010KT 24/18 A3015 RMK A01 T02360182  RH  072%=      5-min Rain = 0
KSM2 261439Z 18011KT 24/18 A3015 RMK A01 T02360181  RH  071%=      5-min Rain = 0
KSM2 261440Z 18010KT 24/18 A3015 RMK A01 T02360182  RH  072%=      5-min Rain = 0
KSM2 261446Z 19010KT 24/18 A3015 RMK A01 T02400183  RH  070%=      5-min Rain = 0
KSM2 261447Z 19010KT 24/19 A3015 RMK A01 T02390185  RH  071%=      5-min Rain = 0
KSM2 261448Z 19010KT 24/18 A3015 RMK A01 T02390184  RH  071%=      5-min Rain = 0
KSM2 261449Z 19011KT 24/19 A3015 RMK A01 T02400185  RH  071%=      5-min Rain = 0
KSM2 261450Z 20013KT 24/18 A3015 RMK A01 T02400184  RH  070%=      5-min Rain = 0
KSM2 261451Z 19012KT 24/18 A3015 RMK A01 T02400183  RH  070%=      5-min Rain = 0
KSM2 261452Z 17009KT 24/18 A3015 RMK A01 T02400183  RH  071%=      5-min Rain = 0
KSM2 261453Z 18009KT 24/18 A3015 RMK A01 T02410181  RH  069%=      5-min Rain = 0
KSM2 261454Z 19011KT 24/18 A3015 RMK A01 T02400180  RH  069%=      5-min Rain = 0
KSM2 261455Z 19011KT 24/18 A3015 RMK A01 T02400180  RH  069%=      5-min Rain = 0
KSM2 261456Z 19011G16KT 24/18 A3015 RMK A01 T02410183  RH  070%=      5-min Rain = 0
KSM2 261457Z 19012KT 24/18 A3015 RMK A01 T02430181  RH  068%=      5-min Rain = 0
KSM2 261458Z 19012KT 24/18 A3015 RMK A01 T02430181  RH  068%=      5-min Rain = 0
KSM2 261459Z 19011KT 24/18 A3015 RMK A01 T02440180  RH  068%=      5-min Rain = 0
KSM2 261500Z 18012KT 24/18 A3015 RMK A01 T02430179  RH  067%=      5-min Rain = 0
KSM2 261501Z 18011KT 24/18 A3015 RMK A01 T02420180  RH  068%=      5-min Rain = 0
KSM2 261502Z 19011KT 24/18 A3015 RMK A01 T02420181  RH  069%=      5-min Rain = 0
KSM2 261503Z 19011KT 24/18 A3015 RMK A01 T02420182  RH  069%=      5-min Rain = 0
KSM2 261504Z 19009KT 24/18 A3015 RMK A01 T02440183  RH  069%=      5-min Rain = 0
KSM2 261505Z 19009KT 25/18 A3015 RMK A01 T02450184  RH  069%=      5-min Rain = 0
KSM2 261506Z 19008KT 25/19 A3015 RMK A01 T02460186  RH  069%=      5-min Rain = 0
KSM2 261507Z 19009KT 25/19 A3015 RMK A01 T02480185  RH  068%=      5-min Rain = 0
KSM2 261508Z 19012KT 25/18 A3015 RMK A01 T02490183  RH  067%=      5-min Rain = 0
KSM2 261509Z 18013KT 25/18 A3015 RMK A01 T02480182  RH  067%=      5-min Rain = 0
KSM2 261510Z 19010KT 25/18 A3015 RMK A01 T02470183  RH  068%=      5-min Rain = 0
KSM2 261511Z 20012KT 25/18 A3015 RMK A01 T02470182  RH  067%=      5-min Rain = 0
KSM2 261512Z 20011KT 25/18 A3015 RMK A01 T02480182  RH  067%=      5-min Rain = 0
KSM2 261513Z 19010KT 25/18 A3015 RMK A01 T02480183  RH  067%=      5-min Rain = 0
KSM2 261514Z 20012KT 25/19 A3015 RMK A01 T02500185  RH  067%=      5-min Rain = 0
KSM2 261515Z 18010KT 25/18 A3015 RMK A01 T02510183  RH  066%=      5-min Rain = 0
KSM2 261516Z 20010KT 25/18 A3015 RMK A01 T02510183  RH  066%=      5-min Rain = 0
KSM2 261517Z 19011KT 25/19 A3015 RMK A01 T02510185  RH  067%=      5-min Rain = 0
KSM2 261518Z 21011KT 25/18 A3015 RMK A01 T02530184  RH  066%=      5-min Rain = 0
KSM2 261519Z 21011KT 25/18 A3015 RMK A01 T02530180  RH  064%=      5-min Rain = 0
KSM2 261520Z 20013KT 25/18 A3015 RMK A01 T02520181  RH  065%=      5-min Rain = 0
KSM2 261521Z 19010KT 25/18 A3015 RMK A01 T02520182  RH  065%=      5-min Rain = 0
KSM2 261522Z 18011KT 25/18 A3015 RMK A01 T02540181  RH  064%=      5-min Rain = 0
KSM2 261523Z 20010KT 26/18 A3015 RMK A01 T02550181  RH  064%=      5-min Rain = 0
KSM2 261524Z 20012KT 26/18 A3014 RMK A01 T02560181  RH  063%=      5-min Rain = 0
KSM2 261525Z 20010KT 26/18 A3015 RMK A01 T02550178  RH  062%=      5-min Rain = 0
KSM2 261526Z 19009G14KT 25/18 A3015 RMK A01 T02540181  RH  064%=      5-min Rain = 0
KSM2 261527Z 19014KT 26/18 A3015 RMK A01 T02550180  RH  063%=      5-min Rain = 0
KSM2 261528Z 19013KT 26/18 A3015 RMK A01 T02550177  RH  062%=      5-min Rain = 0
KSM2 261529Z 19013KT 26/18 A3015 RMK A01 T02550175  RH  061%=      5-min Rain = 0
KSM2 261530Z 18012KT 26/17 A3015 RMK A01 T02550174  RH  061%=      5-min Rain = 0
KSM2 261531Z 18008KT 26/18 A3015 RMK A01 T02550175  RH  061%=      5-min Rain = 0
KSM2 261532Z 18012KT 26/18 A3015 RMK A01 T02560176  RH  061%=      5-min Rain = 0
KSM2 261533Z 20012KT 26/17 A3015 RMK A01 T02570174  RH  060%=      5-min Rain = 0
KSM2 261534Z 21013KT 26/18 A3014 RMK A01 T02570176  RH  061%=      5-min Rain = 0
KSM2 261535Z 20013KT 26/18 A3015 RMK A01 T02560178  RH  062%=      5-min Rain = 0
KSM2 261536Z 20011KT 26/18 A3015 RMK A01 T02570177  RH  061%=      5-min Rain = 0
KSM2 261537Z 21011KT 26/18 A3015 RMK A01 T02570176  RH  061%=      5-min Rain = 0
KSM2 261538Z 21011KT 26/18 A3014 RMK A01 T02570179  RH  062%=      5-min Rain = 0
KSM2 261539Z 19010KT 26/18 A3014 RMK A01 T02570176  RH  061%=      5-min Rain = 0
KSM2 261540Z 19009KT 26/18 A3015 RMK A01 T02590177  RH  061%=      5-min Rain = 0
KSM2 261541Z 18011KT 26/18 A3015 RMK A01 T02630178  RH  059%=      5-min Rain = 0
KSM2 261542Z 18011KT 26/18 A3015 RMK A01 T02640175  RH  058%=      5-min Rain = 0
KSM2 261543Z 21012KT 26/18 A3015 RMK A01 T02630177  RH  059%=      5-min Rain = 0
KSM2 261544Z 21013KT 26/18 A3015 RMK A01 T02620176  RH  059%=      5-min Rain = 0
KSM2 261545Z 20013KT 26/17 A3015 RMK A01 T02610171  RH  057%=      5-min Rain = 0
KSM2 261546Z 20011KT 26/17 A3015 RMK A01 T02600174  RH  059%=      5-min Rain = 0
KSM2 261547Z 21013KT 26/18 A3015 RMK A01 T02620176  RH  059%=      5-min Rain = 0
KSM2 261548Z 21012KT 26/18 A3015 RMK A01 T02630175  RH  058%=      5-min Rain = 0
KSM2 261549Z 21011KT 26/18 A3015 RMK A01 T02620176  RH  059%=      5-min Rain = 0
KSM2 261550Z 20010KT 26/18 A3015 RMK A01 T02630175  RH  058%=      5-min Rain = 0
KSM2 261551Z 21012KT 27/18 A3015 RMK A01 T02650177  RH  059%=      5-min Rain = 0
KSM2 261552Z 21013KT 27/17 A3015 RMK A01 T02660174  RH  057%=      5-min Rain = 0
KSM2 261553Z 21009KT 27/17 A3015 RMK A01 T02660174  RH  057%=      5-min Rain = 0
KSM2 261554Z 20010KT 27/17 A3015 RMK A01 T02650173  RH  057%=      5-min Rain = 0
KSM2 261555Z 18011KT 27/17 A3015 RMK A01 T02670174  RH  057%=      5-min Rain = 0
KSM2 261556Z 19010KT 27/17 A3015 RMK A01 T02680172  RH  055%=      5-min Rain = 0
KSM2 261557Z 20009KT 27/17 A3015 RMK A01 T02670173  RH  056%=      5-min Rain = 0
KSM2 261558Z 20010KT 27/17 A3015 RMK A01 T02670174  RH  056%=      5-min Rain = 0
KSM2 261559Z 20011KT 27/17 A3015 RMK A01 T02690169  RH  054%=      5-min Rain = 0
KSM2 261600Z 20012KT 27/17 A3015 RMK A01 T02690171  RH  055%=      5-min Rain = 0
KSM2 261601Z 19008KT 27/17 A3015 RMK A01 T02690170  RH  055%=      5-min Rain = 0
KSM2 261602Z 21010KT 27/17 A3015 RMK A01 T02680172  RH  056%=      5-min Rain = 0
KSM2 261603Z 22010KT 27/17 A3015 RMK A01 T02690171  RH  055%=      5-min Rain = 0
KSM2 261604Z 22010KT 27/17 A3015 RMK A01 T02690172  RH  055%=      5-min Rain = 0
KSM2 261605Z 21008KT 27/17 A3015 RMK A01 T02700173  RH  055%=      5-min Rain = 0
KSM2 261606Z 19008KT 27/18 A3015 RMK A01 T02720177  RH  056%=      5-min Rain = 0
KSM2 261607Z 21011KT 28/18 A3016 RMK A01 T02750175  RH  055%=      5-min Rain = 0
KSM2 261608Z 21010KT 27/17 A3016 RMK A01 T02740170  RH  053%=      5-min Rain = 0
KSM2 261609Z 20010KT 27/17 A3016 RMK A01 T02710166  RH  053%=      5-min Rain = 0
KSM2 261610Z 22011KT 27/17 A3016 RMK A01 T02710168  RH  053%=      5-min Rain = 0
KSM2 261611Z 21012KT 27/17 A3016 RMK A01 T02730166  RH  052%=      5-min Rain = 0
KSM2 261612Z 21013KT 27/17 A3016 RMK A01 T02740168  RH  053%=      5-min Rain = 0
KSM2 261613Z 20012KT 27/17 A3016 RMK A01 T02740165  RH  052%=      5-min Rain = 0
KSM2 261614Z 21010KT 27/16 A3016 RMK A01 T02720164  RH  052%=      5-min Rain = 0
KSM2 261615Z 22010KT 27/17 A3016 RMK A01 T02710165  RH  053%=      5-min Rain = 0
KSM2 261616Z 20012KT 27/17 A3016 RMK A01 T02720168  RH  053%=      5-min Rain = 0
KSM2 261617Z 20012KT 28/16 A3016 RMK A01 T02750162  RH  050%=      5-min Rain = 0
KSM2 261618Z 20010KT 27/16 A3016 RMK A01 T02740164  RH  051%=      5-min Rain = 0
KSM2 261619Z 19010KT 27/16 A3016 RMK A01 T02740163  RH  050%=      5-min Rain = 0
KSM2 261620Z 19011KT 27/16 A3016 RMK A01 T02740161  RH  050%=      5-min Rain = 0
KSM2 261621Z 18010KT 27/16 A3016 RMK A01 T02730161  RH  050%=      5-min Rain = 0
KSM2 261622Z 20008KT 27/17 A3015 RMK A01 T02730166  RH  052%=      5-min Rain = 0
KSM2 261623Z 18012KT 28/17 A3015 RMK A01 T02770169  RH  052%=      5-min Rain = 0
KSM2 261624Z 18010KT 28/17 A3015 RMK A01 T02790167  RH  050%=      5-min Rain = 0
KSM2 261625Z 20009KT 28/17 A3015 RMK A01 T02790172  RH  052%=      5-min Rain = 0
KSM2 261626Z 21008KT 28/16 A3015 RMK A01 T02800163  RH  049%=      5-min Rain = 0
KSM2 261627Z 19009KT 28/16 A3015 RMK A01 T02770163  RH  050%=      5-min Rain = 0
KSM2 261628Z 17010KT 28/17 A3015 RMK A01 T02780165  RH  050%=      5-min Rain = 0
KSM2 261629Z 19009KT 28/17 A3015 RMK A01 T02800165  RH  050%=      5-min Rain = 0
KSM2 261630Z 18011KT 28/16 A3015 RMK A01 T02810164  RH  049%=      5-min Rain = 0
KSM2 261631Z 18011KT 28/16 A3015 RMK A01 T02810162  RH  048%=      5-min Rain = 0
KSM2 261632Z 18009KT 28/16 A3015 RMK A01 T02800163  RH  049%=      5-min Rain = 0
KSM2 261633Z 19011KT 28/16 A3015 RMK A01 T02800164  RH  049%=      5-min Rain = 0
KSM2 261634Z 20010KT 28/16 A3015 RMK A01 T02800160  RH  048%=      5-min Rain = 0
KSM2 261635Z 17010KT 28/16 A3015 RMK A01 T02800163  RH  049%=      5-min Rain = 0
KSM2 261636Z 18009KT 28/16 A3015 RMK A01 T02810163  RH  049%=      5-min Rain = 0
KSM2 261637Z 17011KT 28/16 A3015 RMK A01 T02830161  RH  048%=      5-min Rain = 0
KSM2 261638Z 18011KT 28/16 A3015 RMK A01 T02840163  RH  048%=      5-min Rain = 0
KSM2 261639Z 17014KT 29/16 A3015 RMK A01 T02850161  RH  047%=      5-min Rain = 0
KSM2 261640Z 18012KT 28/16 A3015 RMK A01 T02830160  RH  047%=      5-min Rain = 0
KSM2 261641Z 18011KT 28/16 A3015 RMK A01 T02830164  RH  048%=      5-min Rain = 0
KSM2 261642Z 17010KT 28/16 A3015 RMK A01 T02840162  RH  048%=      5-min Rain = 0
KSM2 261643Z 19011KT 29/16 A3015 RMK A01 T02850164  RH  048%=      5-min Rain = 0
KSM2 261644Z 18013KT 29/16 A3015 RMK A01 T02850163  RH  047%=      5-min Rain = 0
KSM2 261645Z 19012KT 28/16 A3015 RMK A01 T02840162  RH  048%=      5-min Rain = 0
KSM2 261646Z 18012KT 28/16 A3015 RMK A01 T02830159  RH  047%=      5-min Rain = 0
KSM2 261647Z 18012KT 28/16 A3015 RMK A01 T02820159  RH  047%=      5-min Rain = 0
KSM2 261648Z 17010KT 28/16 A3015 RMK A01 T02840162  RH  048%=      5-min Rain = 0
KSM2 261649Z 18012KT 29/16 A3015 RMK A01 T02870161  RH  046%=      5-min Rain = 0
KSM2 261650Z 19012KT 29/16 A3015 RMK A01 T02880155  RH  044%=      5-min Rain = 0
KSM2 261651Z 18011KT 29/16 A3015 RMK A01 T02870157  RH  045%=      5-min Rain = 0
KSM2 261652Z 19010KT 29/16 A3015 RMK A01 T02870158  RH  046%=      5-min Rain = 0
KSM2 261653Z 19009KT 29/16 A3015 RMK A01 T02870159  RH  046%=      5-min Rain = 0
KSM2 261654Z 21009G14KT 29/16 A3015 RMK A01 T02870160  RH  046%=      5-min Rain = 0
KSM2 261655Z 21012KT 29/16 A3015 RMK A01 T02880158  RH  045%=      5-min Rain = 0
KSM2 261656Z 20011KT 29/16 A3015 RMK A01 T02890161  RH  046%=      5-min Rain = 0
KSM2 261657Z 20013KT 29/16 A3015 RMK A01 T02890160  RH  046%=      5-min Rain = 0
KSM2 261658Z 20011KT 29/16 A3015 RMK A01 T02890159  RH  045%=      5-min Rain = 0
KSM2 261659Z 19011KT 29/16 A3015 RMK A01 T02900159  RH  045%=      5-min Rain = 0
KSM2 261700Z 19012KT 29/16 A3015 RMK A01 T02910155  RH  044%=      5-min Rain = 0
KSM2 261701Z 18012KT 29/15 A3015 RMK A01 T02920154  RH  043%=      5-min Rain = 0
KSM2 261702Z 19015KT 29/15 A3015 RMK A01 T02930153  RH  043%=      5-min Rain = 0
KSM2 261703Z 19013KT 29/16 A3015 RMK A01 T02930156  RH  043%=      5-min Rain = 0
KSM2 261704Z 19010KT 29/16 A3015 RMK A01 T02920158  RH  044%=      5-min Rain = 0
KSM2 261705Z 20009KT 29/16 A3015 RMK A01 T02930156  RH  044%=      5-min Rain = 0
KSM2 261706Z 19012KT 29/16 A3015 RMK A01 T02930159  RH  044%=      5-min Rain = 0
KSM2 261707Z 19013KT 29/16 A3015 RMK A01 T02930158  RH  044%=      5-min Rain = 0
KSM2 261708Z 18009KT 29/15 A3014 RMK A01 T02910153  RH  043%=      5-min Rain = 0
KSM2 261709Z 19009G14KT 29/16 A3014 RMK A01 T02890159  RH  045%=      5-min Rain = 0
KSM2 261710Z 19014KT 29/15 A3014 RMK A01 T02920154  RH  043%=      5-min Rain = 0
KSM2 261711Z 18013KT 29/15 A3015 RMK A01 T02940149  RH  041%=      5-min Rain = 0
KSM2 261712Z 19011KT 29/15 A3015 RMK A01 T02920152  RH  043%=      5-min Rain = 0
KSM2 261713Z 19011KT 29/16 A3014 RMK A01 T02920155  RH  043%=      5-min Rain = 0
KSM2 261714Z 19011KT 30/15 A3015 RMK A01 T02950153  RH  042%=      5-min Rain = 0
KSM2 261715Z 19011KT 30/15 A3015 RMK A01 T02970151  RH  041%=      5-min Rain = 0
KSM2 261716Z 18009KT 30/16 A3014 RMK A01 T02980156  RH  042%=      5-min Rain = 0
KSM2 261717Z 19013KT 30/15 A3014 RMK A01 T03010146  RH  039%=      5-min Rain = 0
KSM2 261718Z 19014KT 30/14 A3015 RMK A01 T03010140  RH  038%=      5-min Rain = 0
KSM2 261719Z 18012KT 30/14 A3015 RMK A01 T02990142  RH  038%=      5-min Rain = 0
KSM2 261720Z 20013KT 30/14 A3015 RMK A01 T02970143  RH  039%=      5-min Rain = 0
KSM2 261721Z 19012KT 30/15 A3015 RMK A01 T02950148  RH  041%=      5-min Rain = 0
KSM2 261722Z 20009G14KT 30/15 A3015 RMK A01 T02950149  RH  041%=      5-min Rain = 0
KSM2 261723Z 18009KT 30/15 A3015 RMK A01 T02960151  RH  041%=      5-min Rain = 0
KSM2 261724Z 17012KT 30/15 A3015 RMK A01 T02970147  RH  040%=      5-min Rain = 0
KSM2 261725Z 19011KT 30/14 A3015 RMK A01 T02970142  RH  039%=      5-min Rain = 0
KSM2 261726Z 19011KT 30/15 A3014 RMK A01 T02980147  RH  040%=      5-min Rain = 0
KSM2 261727Z 17012KT 30/15 A3014 RMK A01 T02990145  RH  039%=      5-min Rain = 0
KSM2 261728Z 18011KT 30/14 A3014 RMK A01 T02990142  RH  038%=      5-min Rain = 0
KSM2 261729Z 19010G15KT 30/14 A3014 RMK A01 T03010140  RH  037%=      5-min Rain = 0
KSM2 261730Z 18013KT 30/14 A3014 RMK A01 T03020142  RH  038%=      5-min Rain = 0
KSM2 261731Z 18011G16KT 30/14 A3014 RMK A01 T03020136  RH  036%=      5-min Rain = 0
KSM2 261732Z 16008KT 30/14 A3014 RMK A01 T03020139  RH  037%=      5-min Rain = 0
KSM2 261733Z 17009KT 30/14 A3014 RMK A01 T03030136  RH  036%=      5-min Rain = 0
KSM2 261734Z 17013KT 30/14 A3014 RMK A01 T03040139  RH  037%=      5-min Rain = 0
KSM2 261735Z 17010KT 30/14 A3014 RMK A01 T03030144  RH  038%=      5-min Rain = 0
KSM2 261736Z 18012KT 30/15 A3014 RMK A01 T03030149  RH  039%=      5-min Rain = 0
KSM2 261737Z 17007KT 30/15 A3014 RMK A01 T03040148  RH  039%=      5-min Rain = 0
KSM2 261738Z 18011KT 31/14 A3014 RMK A01 T03060142  RH  037%=      5-min Rain = 0
KSM2 261739Z 19013KT 31/14 A3014 RMK A01 T03060138  RH  036%=      5-min Rain = 0
KSM2 261740Z 20013KT 31/14 A3014 RMK A01 T03060143  RH  037%=      5-min Rain = 0
KSM2 261741Z 20012KT 30/14 A3014 RMK A01 T03040140  RH  037%=      5-min Rain = 0
KSM2 261742Z 18011KT 30/13 A3014 RMK A01 T03040129  RH  034%=      5-min Rain = 0
KSM2 261743Z 19013KT 31/13 A3014 RMK A01 T03050133  RH  035%=      5-min Rain = 0
KSM2 261744Z 17014KT 31/13 A3014 RMK A01 T03060129  RH  034%=      5-min Rain = 0
KSM2 261745Z 17013KT 31/13 A3014 RMK A01 T03050127  RH  034%=      5-min Rain = 0
KSM2 261746Z 17011KT 30/13 A3014 RMK A01 T03040127  RH  034%=      5-min Rain = 0
KSM2 261747Z 18011KT 30/13 A3014 RMK A01 T03040133  RH  035%=      5-min Rain = 0
KSM2 261748Z 20012KT 31/14 A3014 RMK A01 T03050137  RH  036%=      5-min Rain = 0
KSM2 261749Z 19013KT 30/14 A3014 RMK A01 T03040136  RH  036%=      5-min Rain = 0
KSM2 261750Z 18009KT 30/14 A3014 RMK A01 T03030135  RH  036%=      5-min Rain = 0
KSM2 261751Z 16012KT 30/14 A3014 RMK A01 T03040138  RH  036%=      5-min Rain = 0
KSM2 261752Z 17009KT 31/14 A3014 RMK A01 T03060139  RH  036%=      5-min Rain = 0
KSM2 261753Z 16012KT 31/13 A3014 RMK A01 T03100133  RH  034%=      5-min Rain = 0
KSM2 261754Z 16011KT 31/13 A3014 RMK A01 T03090127  RH  033%=      5-min Rain = 0
KSM2 261755Z 18011KT 31/13 A3014 RMK A01 T03080129  RH  033%=      5-min Rain = 0
KSM2 261756Z 18009KT 31/13 A3014 RMK A01 T03090125  RH  032%=      5-min Rain = 0
KSM2 261757Z 18011KT 31/14 A3014 RMK A01 T03090135  RH  035%=      5-min Rain = 0
KSM2 261758Z 19012KT 31/14 A3014 RMK A01 T03110137  RH  035%=      5-min Rain = 0
KSM2 261759Z 19012KT 31/13 A3014 RMK A01 T03120132  RH  033%=      5-min Rain = 0
KSM2 261800Z 17012KT 31/13 A3014 RMK A01 T03120125  RH  032%=      5-min Rain = 0
KSM2 261801Z 16011KT 31/12 A3014 RMK A01 T03130124  RH  031%=      5-min Rain = 0
KSM2 261802Z 17012KT 31/12 A3014 RMK A01 T03130122  RH  031%=      5-min Rain = 0
KSM2 261803Z 17011KT 31/12 A3014 RMK A01 T03110122  RH  032%=      5-min Rain = 0
KSM2 261804Z 18010KT 31/13 A3014 RMK A01 T03100128  RH  033%=      5-min Rain = 0
KSM2 261805Z 17008KT 31/13 A3014 RMK A01 T03090128  RH  033%=      5-min Rain = 0
KSM2 261806Z 18012KT 31/13 A3014 RMK A01 T03110132  RH  034%=      5-min Rain = 0
KSM2 261807Z 17011KT 31/13 A3014 RMK A01 T03110132  RH  034%=      5-min Rain = 0
KSM2 261808Z 19011KT 31/14 A3014 RMK A01 T03090140  RH  036%=      5-min Rain = 0
KSM2 261809Z 17006KT 31/14 A3014 RMK A01 T03100143  RH  036%=      5-min Rain = 0
KSM2 261810Z 17007KT 31/14 A3014 RMK A01 T03110141  RH  035%=      5-min Rain = 0
KSM2 261811Z 16008KT 31/14 A3014 RMK A01 T03120141  RH  035%=      5-min Rain = 0
KSM2 261812Z 17007G12KT 31/14 A3014 RMK A01 T03130141  RH  035%=      5-min Rain = 0
KSM2 261813Z 18009KT 32/14 A3014 RMK A01 T03160140  RH  034%=      5-min Rain = 0
KSM2 261814Z 18012G17KT 32/13 A3014 RMK A01 T03200132  RH  032%=      5-min Rain = 0
KSM2 261815Z 17012KT 32/13 A3014 RMK A01 T03180127  RH  031%=      5-min Rain = 0
KSM2 261816Z 16011KT 32/13 A3014 RMK A01 T03160132  RH  033%=      5-min Rain = 0
KSM2 261817Z 16007KT 31/13 A3014 RMK A01 T03130127  RH  032%=      5-min Rain = 0
KSM2 261818Z 18007KT 31/13 A3014 RMK A01 T03120129  RH  033%=      5-min Rain = 0
KSM2 261819Z 19010KT 31/14 A3014 RMK A01 T03130139  RH  035%=      5-min Rain = 0
KSM2 261820Z 14009KT 32/14 A3014 RMK A01 T03150136  RH  034%=      5-min Rain = 0
KSM2 261821Z 15011KT 32/12 A3014 RMK A01 T03170123  RH  030%=      5-min Rain = 0
KSM2 261822Z 15007KT 32/13 A3014 RMK A01 T03160129  RH  032%=      5-min Rain = 0
KSM2 261823Z 14012KT 32/13 A3014 RMK A01 T03170134  RH  033%=      5-min Rain = 0
KSM2 261824Z 15009KT 32/14 A3014 RMK A01 T03160136  RH  033%=      5-min Rain = 0
KSM2 261825Z 17008KT 32/15 A3014 RMK A01 T03150145  RH  036%=      5-min Rain = 0
KSM2 261826Z 16010G16KT 32/14 A3014 RMK A01 T03170142  RH  035%=      5-min Rain = 0
KSM2 261827Z 16012KT 32/14 A3014 RMK A01 T03180138  RH  034%=      5-min Rain = 0
KSM2 261828Z 16011G16KT 32/14 A3014 RMK A01 T03170135  RH  033%=      5-min Rain = 0
KSM2 261829Z 16010KT 32/14 A3014 RMK A01 T03160140  RH  034%=      5-min Rain = 0
KSM2 261830Z 18012KT 32/14 A3014 RMK A01 T03170140  RH  034%=      5-min Rain = 0
KSM2 261831Z 17009KT 32/14 A3014 RMK A01 T03170141  RH  034%=      5-min Rain = 0
KSM2 261832Z 17007KT 32/14 A3014 RMK A01 T03150142  RH  035%=      5-min Rain = 0
KSM2 261833Z 15009G15KT 32/14 A3014 RMK A01 T03170141  RH  034%=      5-min Rain = 0
KSM2 261834Z 17012KT 32/14 A3014 RMK A01 T03200136  RH  033%=      5-min Rain = 0
KSM2 261835Z 17012KT 32/13 A3014 RMK A01 T03220131  RH  031%=      5-min Rain = 0
KSM2 261836Z 18010KT 32/13 A3014 RMK A01 T03200126  RH  031%=      5-min Rain = 0
KSM2 261837Z 17012KT 32/13 A3014 RMK A01 T03170130  RH  032%=      5-min Rain = 0
KSM2 261838Z 14011G16KT 32/13 A3014 RMK A01 T03170131  RH  032%=      5-min Rain = 0
KSM2 261839Z 15008KT 32/13 A3014 RMK A01 T03170132  RH  032%=      5-min Rain = 0
KSM2 261840Z 17008KT 32/13 A3014 RMK A01 T03170134  RH  033%=      5-min Rain = 0
KSM2 261841Z 14007KT 32/13 A3014 RMK A01 T03160129  RH  032%=      5-min Rain = 0
KSM2 261842Z 15009KT 31/13 A3014 RMK A01 T03140131  RH  033%=      5-min Rain = 0
KSM2 261843Z 15010KT 32/13 A3014 RMK A01 T03150133  RH  033%=      5-min Rain = 0
KSM2 261844Z 15009KT 32/13 A3014 RMK A01 T03170125  RH  031%=      5-min Rain = 0
KSM2 261845Z 17014KT 32/13 A3014 RMK A01 T03200125  RH  030%=      5-min Rain = 0
KSM2 261846Z 16014KT 32/13 A3014 RMK A01 T03200125  RH  031%=      5-min Rain = 0
KSM2 261847Z 15013KT 32/13 A3014 RMK A01 T03170128  RH  031%=      5-min Rain = 0
KSM2 261848Z 15011G17KT 32/13 A3014 RMK A01 T03170126  RH  031%=      5-min Rain = 0
KSM2 261849Z 16009KT 32/13 A3014 RMK A01 T03160133  RH  033%=      5-min Rain = 0
KSM2 261850Z 17009KT 32/13 A3014 RMK A01 T03170130  RH  032%=      5-min Rain = 0
KSM2 261851Z 17008G13KT 32/13 A3013 RMK A01 T03160132  RH  033%=      5-min Rain = 0
KSM2 261852Z 17012KT 32/14 A3013 RMK A01 T03160136  RH  033%=      5-min Rain = 0
KSM2 261853Z 17012KT 32/13 A3014 RMK A01 T03190129  RH  032%=      5-min Rain = 0
KSM2 261854Z 15012KT 32/13 A3013 RMK A01 T03180129  RH  032%=      5-min Rain = 0
KSM2 261855Z 15012KT 32/13 A3013 RMK A01 T03180130  RH  032%=      5-min Rain = 0
KSM2 261856Z 15012G17KT 32/13 A3013 RMK A01 T03200131  RH  032%=      5-min Rain = 0
KSM2 261857Z 16009KT 32/13 A3013 RMK A01 T03200128  RH  031%=      5-min Rain = 0
KSM2 261858Z 13007KT 32/13 A3013 RMK A01 T03190131  RH  032%=      5-min Rain = 0
KSM2 261859Z 16012KT 32/13 A3013 RMK A01 T03190131  RH  032%=      5-min Rain = 0
KSM2 261900Z 15015KT 32/13 A3013 RMK A01 T03200129  RH  031%=      5-min Rain = 0
KSM2 261901Z 16013KT 32/13 A3013 RMK A01 T03200129  RH  031%=      5-min Rain = 0
KSM2 261902Z 15011KT 32/13 A3013 RMK A01 T03210128  RH  031%=      5-min Rain = 0
KSM2 261903Z 16010KT 32/13 A3013 RMK A01 T03220132  RH  032%=      5-min Rain = 0
KSM2 261904Z 15008KT 32/13 A3013 RMK A01 T03220132  RH  032%=      5-min Rain = 0
KSM2 261905Z 15008KT 32/13 A3013 RMK A01 T03240133  RH  031%=      5-min Rain = 0
KSM2 261906Z 15008KT 32/13 A3013 RMK A01 T03240132  RH  031%=      5-min Rain = 0
KSM2 261907Z 17008KT 32/14 A3013 RMK A01 T03240135  RH  032%=      5-min Rain = 0
KSM2 261908Z 18013G20KT 32/13 A3013 RMK A01 T03220128  RH  031%=      5-min Rain = 0
KSM2 261909Z 15013KT 32/12 A3013 RMK A01 T03210120  RH  029%=      5-min Rain = 0
KSM2 261910Z 17011KT 32/12 A3013 RMK A01 T03210120  RH  029%=      5-min Rain = 0
KSM2 261911Z 19010KT 32/11 A3013 RMK A01 T03210108  RH  027%=      5-min Rain = 0
KSM2 261912Z 18010KT 32/12 A3013 RMK A01 T03200117  RH  029%=      5-min Rain = 0
KSM2 261913Z 17008KT 32/14 A3013 RMK A01 T03210137  RH  033%=      5-min Rain = 0
KSM2 261914Z 16009G14KT 32/14 A3013 RMK A01 T03220135  RH  032%=      5-min Rain = 0
KSM2 261915Z 16012G17KT 32/13 A3013 RMK A01 T03220126  RH  030%=      5-min Rain = 0
KSM2 261916Z 17012KT 32/13 A3013 RMK A01 T03200130  RH  031%=      5-min Rain = 0
KSM2 261917Z 18010KT 32/13 A3013 RMK A01 T03210126  RH  030%=      5-min Rain = 0
KSM2 261918Z 15011KT 32/13 A3013 RMK A01 T03220128  RH  031%=      5-min Rain = 0
KSM2 261919Z 17009G14KT 33/13 A3013 RMK A01 T03250129  RH  030%=      5-min Rain = 0
KSM2 261920Z 16015KT 33/13 A3013 RMK A01 T03260132  RH  031%=      5-min Rain = 0
KSM2 261921Z 15013KT 32/13 A3013 RMK A01 T03230129  RH  031%=      5-min Rain = 0
KSM2 261922Z 15012G18KT 32/13 A3013 RMK A01 T03220132  RH  032%=      5-min Rain = 0
KSM2 261923Z 15009KT 32/14 A3013 RMK A01 T03220136  RH  032%=      5-min Rain = 0
KSM2 261924Z 15010KT 32/14 A3013 RMK A01 T03240136  RH  032%=      5-min Rain = 0
KSM2 261925Z 13010KT 32/13 A3013 RMK A01 T03230131  RH  031%=      5-min Rain = 0
KSM2 261926Z 14012G17KT 32/13 A3013 RMK A01 T03210131  RH  032%=      5-min Rain = 0
KSM2 261927Z 15015KT 32/13 A3013 RMK A01 T03200130  RH  031%=      5-min Rain = 0
KSM2 261928Z 14015KT 32/13 A3013 RMK A01 T03210130  RH  031%=      5-min Rain = 0
KSM2 261929Z 13012KT 32/13 A3013 RMK A01 T03210129  RH  031%=      5-min Rain = 0
KSM2 261930Z 15014G20KT 32/13 A3013 RMK A01 T03210129  RH  031%=      5-min Rain = 0
KSM2 261931Z 17010KT 32/13 A3013 RMK A01 T03230132  RH  031%=      5-min Rain = 0
KSM2 261932Z 17008KT 33/14 A3013 RMK A01 T03250136  RH  032%=      5-min Rain = 0
KSM2 261933Z 19012G17KT 33/13 A3013 RMK A01 T03260129  RH  030%=      5-min Rain = 0
KSM2 261934Z 19013KT 32/13 A3013 RMK A01 T03240128  RH  030%=      5-min Rain = 0
KSM2 261935Z 19009KT 32/13 A3012 RMK A01 T03240133  RH  031%=      5-min Rain = 0
KSM2 261936Z 19011KT 32/13 A3012 RMK A01 T03240133  RH  031%=      5-min Rain = 0
KSM2 261937Z 17013KT 33/13 A3013 RMK A01 T03260131  RH  031%=      5-min Rain = 0
KSM2 261938Z 18011KT 33/13 A3013 RMK A01 T03250130  RH  031%=      5-min Rain = 0
KSM2 261939Z 17010KT 32/13 A3012 RMK A01 T03230131  RH  031%=      5-min Rain = 0
KSM2 261940Z 17013KT 32/13 A3012 RMK A01 T03240132  RH  031%=      5-min Rain = 0
KSM2 261941Z 16014KT 32/12 A3013 RMK A01 T03240120  RH  029%=      5-min Rain = 0
KSM2 261942Z 16012KT 32/12 A3013 RMK A01 T03240121  RH  029%=      5-min Rain = 0
KSM2 261943Z 18009KT 32/13 A3012 RMK A01 T03230128  RH  030%=      5-min Rain = 0
KSM2 261944Z 18013KT 32/13 A3012 RMK A01 T03240133  RH  031%=      5-min Rain = 0
KSM2 261945Z 18011KT 32/13 A3012 RMK A01 T03240133  RH  031%=      5-min Rain = 0
KSM2 261946Z 18009KT 32/13 A3012 RMK A01 T03240133  RH  031%=      5-min Rain = 0
KSM2 261947Z 15009KT 33/13 A3012 RMK A01 T03250134  RH  032%=      5-min Rain = 0
KSM2 261948Z 15015KT 33/13 A3012 RMK A01 T03280134  RH  031%=      5-min Rain = 0
KSM2 261949Z 16011KT 33/13 A3012 RMK A01 T03270131  RH  030%=      5-min Rain = 0
KSM2 261950Z 16013KT 33/13 A3012 RMK A01 T03260129  RH  030%=      5-min Rain = 0
KSM2 261951Z 18013KT 33/13 A3012 RMK A01 T03270130  RH  030%=      5-min Rain = 0
KSM2 261952Z 17012KT 33/14 A3012 RMK A01 T03250136  RH  032%=      5-min Rain = 0
KSM2 261953Z 18009KT 32/14 A3012 RMK A01 T03240136  RH  032%=      5-min Rain = 0
KSM2 261954Z 18011KT 33/14 A3012 RMK A01 T03270138  RH  032%=      5-min Rain = 0
KSM2 261955Z 18013G18KT 33/14 A3012 RMK A01 T03280136  RH  031%=      5-min Rain = 0
KSM2 261956Z 17014KT 33/13 A3012 RMK A01 T03260125  RH  030%=      5-min Rain = 0
KSM2 261957Z 17010KT 32/13 A3012 RMK A01 T03240133  RH  031%=      5-min Rain = 0
KSM2 261958Z 17010G15KT 33/14 A3012 RMK A01 T03270137  RH  032%=      5-min Rain = 0
KSM2 261959Z 17013KT 33/13 A3012 RMK A01 T03280129  RH  030%=      5-min Rain = 0
KSM2 262000Z 15012G17KT 33/13 A3012 RMK A01 T03290134  RH  031%=      5-min Rain = 0
KSM2 262001Z 14015G22KT 33/13 A3012 RMK A01 T03300128  RH  029%=      5-min Rain = 0
KSM2 262002Z 16015KT 33/13 A3012 RMK A01 T03280130  RH  030%=      5-min Rain = 0
KSM2 262003Z 15016KT 33/13 A3012 RMK A01 T03270129  RH  030%=      5-min Rain = 0
KSM2 262004Z 15014KT 33/13 A3012 RMK A01 T03270127  RH  030%=      5-min Rain = 0
KSM2 262005Z 15009G14KT 33/13 A3012 RMK A01 T03260129  RH  030%=      5-min Rain = 0
KSM2 262006Z 14010KT 33/13 A3012 RMK A01 T03250126  RH  030%=      5-min Rain = 0
KSM2 262007Z 13010G15KT 33/13 A3011 RMK A01 T03250126  RH  030%=      5-min Rain = 0
KSM2 262008Z 13012KT 33/13 A3011 RMK A01 T03250134  RH  031%=      5-min Rain = 0
KSM2 262009Z 15011G16KT 32/13 A3011 RMK A01 T03240134  RH  032%=      5-min Rain = 0
KSM2 262010Z 17015KT 33/14 A3012 RMK A01 T03250135  RH  031%=      5-min Rain = 0
KSM2 262011Z 16013KT 33/13 A3012 RMK A01 T03270133  RH  031%=      5-min Rain = 0
KSM2 262012Z 16012KT 33/13 A3012 RMK A01 T03260132  RH  031%=      5-min Rain = 0
KSM2 262013Z 17012G17KT 33/13 A3012 RMK A01 T03250131  RH  031%=      5-min Rain = 0
KSM2 262014Z 18011KT 32/13 A3012 RMK A01 T03230125  RH  030%=      5-min Rain = 0
KSM2 262015Z 17013KT 32/13 A3012 RMK A01 T03200131  RH  032%=      5-min Rain = 0
KSM2 262016Z 17011KT 32/13 A3012 RMK A01 T03230133  RH  031%=      5-min Rain = 0
KSM2 262017Z 16011KT 33/13 A3012 RMK A01 T03270133  RH  031%=      5-min Rain = 0
KSM2 262018Z 16012KT 33/13 A3012 RMK A01 T03280133  RH  031%=      5-min Rain = 0
KSM2 262019Z 16014KT 33/13 A3012 RMK A01 T03270129  RH  030%=      5-min Rain = 0
KSM2 262020Z 16015KT 33/13 A3012 RMK A01 T03260133  RH  031%=      5-min Rain = 0
KSM2 262021Z 15013KT 33/14 A3012 RMK A01 T03250136  RH  032%=      5-min Rain = 0
KSM2 262022Z 16011KT 33/14 A3011 RMK A01 T03250136  RH  032%=      5-min Rain = 0
KSM2 262023Z 16008KT 32/14 A3011 RMK A01 T03230136  RH  032%=      5-min Rain = 0
KSM2 262024Z 15014G20KT 32/14 A3011 RMK A01 T03220139  RH  033%=      5-min Rain = 0
KSM2 262025Z 17016KT 32/14 A3011 RMK A01 T03240135  RH  032%=      5-min Rain = 0
KSM2 262026Z 16013KT 32/14 A3011 RMK A01 T03230136  RH  032%=      5-min Rain = 0
KSM2 262027Z 15011KT 32/13 A3011 RMK A01 T03230133  RH  031%=      5-min Rain = 0
KSM2 262028Z 17013KT 33/14 A3011 RMK A01 T03260135  RH  031%=      5-min Rain = 0
KSM2 262029Z 16016KT 33/13 A3011 RMK A01 T03270133  RH  031%=      5-min Rain = 0
KSM2 262030Z 16015KT 33/13 A3011 RMK A01 T03260128  RH  030%=      5-min Rain = 0
KSM2 262031Z 16015KT 33/13 A3011 RMK A01 T03250127  RH  030%=      5-min Rain = 0
KSM2 262032Z 17015KT 33/12 A3011 RMK A01 T03250124  RH  029%=      5-min Rain = 0
KSM2 262033Z 19012KT 33/13 A3011 RMK A01 T03250127  RH  030%=      5-min Rain = 0
KSM2 262034Z 19011KT 33/13 A3011 RMK A01 T03270130  RH  030%=      5-min Rain = 0
KSM2 262035Z 17011G16KT 33/13 A3011 RMK A01 T03290132  RH  030%=      5-min Rain = 0
KSM2 262036Z 17012KT 33/13 A3011 RMK A01 T03300131  RH  030%=      5-min Rain = 0
KSM2 262037Z 14011KT 33/13 A3011 RMK A01 T03280129  RH  030%=      5-min Rain = 0
KSM2 262038Z 14013G18KT 33/13 A3011 RMK A01 T03280131  RH  030%=      5-min Rain = 0
KSM2 262039Z 15012KT 33/13 A3011 RMK A01 T03290133  RH  031%=      5-min Rain = 0
KSM2 262040Z 15009KT 33/14 A3011 RMK A01 T03280135  RH  031%=      5-min Rain = 0
KSM2 262041Z 17010KT 33/14 A3011 RMK A01 T03280136  RH  031%=      5-min Rain = 0
KSM2 262042Z 16012KT 33/14 A3011 RMK A01 T03290136  RH  031%=      5-min Rain = 0
KSM2 262043Z 17013KT 33/14 A3011 RMK A01 T03290135  RH  031%=      5-min Rain = 0
KSM2 262044Z 17010KT 33/14 A3011 RMK A01 T03280135  RH  031%=      5-min Rain = 0
KSM2 262045Z 17011KT 33/14 A3011 RMK A01 T03270138  RH  032%=      5-min Rain = 0
KSM2 262046Z 17013KT 33/13 A3011 RMK A01 T03290131  RH  030%=      5-min Rain = 0
KSM2 262047Z 15014KT 33/13 A3011 RMK A01 T03290130  RH  030%=      5-min Rain = 0
KSM2 262048Z 17013KT 33/13 A3011 RMK A01 T03280128  RH  030%=      5-min Rain = 0
KSM2 262049Z 18012KT 33/12 A3011 RMK A01 T03250122  RH  029%=      5-min Rain = 0
KSM2 262050Z 18012KT 33/11 A3011 RMK A01 T03250113  RH  027%=      5-min Rain = 0
KSM2 262051Z 17013KT 33/12 A3011 RMK A01 T03270119  RH  028%=      5-min Rain = 0
KSM2 262052Z 16012KT 33/13 A3011 RMK A01 T03290131  RH  030%=      5-min Rain = 0
KSM2 262053Z 14012KT 33/13 A3011 RMK A01 T03290133  RH  031%=      5-min Rain = 0
KSM2 262054Z 14009KT 33/13 A3011 RMK A01 T03270134  RH  031%=      5-min Rain = 0
KSM2 262055Z 14010KT 33/13 A3011 RMK A01 T03260132  RH  031%=      5-min Rain = 0
KSM2 262056Z 14011KT 33/13 A301 RMK A01 T03260130  RH  030%=      5-min Rain = 0
KSM2 262057Z 14014KT 33/14 A301 RMK A01 T03260136  RH  032%=      5-min Rain = 0
KSM2 262058Z 15014G19KT 33/14 A301 RMK A01 T03270136  RH  032%=      5-min Rain = 0
KSM2 262059Z 14015KT 33/14 A301 RMK A01 T03260135  RH  031%=      5-min Rain = 0
KSM2 262100Z 15014KT 33/13 A301 RMK A01 T03260132  RH  031%=      5-min Rain = 0
KSM2 262101Z 15012KT 33/13 A301 RMK A01 T03260133  RH  031%=      5-min Rain = 0
KSM2 262102Z 16015G21KT 33/13 A301 RMK A01 T03280127  RH  030%=      5-min Rain = 0
KSM2 262103Z 17013KT 33/13 A301 RMK A01 T03250127  RH  030%=      5-min Rain = 0
KSM2 262104Z 16013KT 33/13 A301 RMK A01 T03250126  RH  030%=      5-min Rain = 0
KSM2 262105Z 16011KT 33/13 A301 RMK A01 T03250126  RH  030%=      5-min Rain = 0
KSM2 262106Z 15011KT 33/13 A301 RMK A01 T03280131  RH  030%=      5-min Rain = 0
KSM2 262107Z 16010KT 33/13 A301 RMK A01 T03310130  RH  030%=      5-min Rain = 0
KSM2 262108Z 13012KT 33/13 A301 RMK A01 T03310130  RH  030%=      5-min Rain = 0
KSM2 262109Z 15014KT 33/13 A301 RMK A01 T03310130  RH  030%=      5-min Rain = 0
KSM2 262110Z 17011KT 33/13 A301 RMK A01 T03300133  RH  030%=      5-min Rain = 0
KSM2 262111Z 17014KT 33/13 A301 RMK A01 T03300131  RH  030%=      5-min Rain = 0
KSM2 262112Z 15013KT 33/13 A301 RMK A01 T03290131  RH  030%=      5-min Rain = 0
KSM2 262113Z 16012KT 33/13 A301 RMK A01 T03290130  RH  030%=      5-min Rain = 0
KSM2 262114Z 14011KT 33/13 A301 RMK A01 T03290126  RH  029%=      5-min Rain = 0
KSM2 262115Z 14010KT 33/13 A301 RMK A01 T03290131  RH  030%=      5-min Rain = 0
KSM2 262116Z 16011KT 33/14 A301 RMK A01 T03300135  RH  031%=      5-min Rain = 0
KSM2 262117Z 16010G15KT 33/13 A301 RMK A01 T03330134  RH  030%=      5-min Rain = 0
KSM2 262118Z 16014G21KT 33/13 A301 RMK A01 T03340133  RH  030%=      5-min Rain = 0
KSM2 262119Z 15015KT 33/13 A301 RMK A01 T03330129  RH  029%=      5-min Rain = 0
KSM2 262120Z 15014G19KT 33/13 A301 RMK A01 T03300126  RH  029%=      5-min Rain = 0
KSM2 262121Z 14015G20KT 33/12 A301 RMK A01 T03280124  RH  029%=      5-min Rain = 0
KSM2 262122Z 15016KT 33/12 A301 RMK A01 T03280123  RH  029%=      5-min Rain = 0
KSM2 262123Z 17017KT 33/12 A301 RMK A01 T03260121  RH  029%=      5-min Rain = 0
KSM2 262124Z 16013KT 33/12 A301 RMK A01 T03250122  RH  029%=      5-min Rain = 0
KSM2 262125Z 14012KT 33/12 A301 RMK A01 T03270123  RH  029%=      5-min Rain = 0
KSM2 262126Z 15010KT 33/12 A301 RMK A01 T03280124  RH  029%=      5-min Rain = 0
KSM2 262127Z 16011G16KT 33/12 A301 RMK A01 T03300119  RH  028%=      5-min Rain = 0
KSM2 262128Z 16011KT 33/12 A301 RMK A01 T03290123  RH  028%=      5-min Rain = 0
KSM2 262129Z 17015KT 33/12 A301 RMK A01 T03290117  RH  027%=      5-min Rain = 0
KSM2 262130Z 17009KT 33/11 A301 RMK A01 T03290113  RH  027%=      5-min Rain = 0
KSM2 262131Z 15011KT 33/12 A3009 RMK A01 T03280118  RH  028%=      5-min Rain = 0
KSM2 262132Z 14012G17KT 33/12 A3009 RMK A01 T03290122  RH  028%=      5-min Rain = 0
KSM2 262133Z 16012G20KT 33/12 A3009 RMK A01 T03300123  RH  028%=      5-min Rain = 0
KSM2 262134Z 15010KT 33/12 A3009 RMK A01 T03290123  RH  029%=      5-min Rain = 0
KSM2 262135Z 16012G18KT 33/13 A3009 RMK A01 T03280127  RH  029%=      5-min Rain = 0
KSM2 262136Z 15014KT 33/13 A3009 RMK A01 T03310125  RH  029%=      5-min Rain = 0
KSM2 262137Z 13014KT 33/13 A3009 RMK A01 T03310125  RH  029%=      5-min Rain = 0
KSM2 262138Z 14013KT 33/12 A3009 RMK A01 T03300122  RH  028%=      5-min Rain = 0
KSM2 262139Z 14013G18KT 33/12 A3009 RMK A01 T03290124  RH  029%=      5-min Rain = 0
KSM2 262140Z 15015KT 33/13 A3009 RMK A01 T03300125  RH  029%=      5-min Rain = 0
KSM2 262141Z 14013KT 33/13 A3009 RMK A01 T03300125  RH  029%=      5-min Rain = 0
KSM2 262142Z 14010KT 33/13 A3009 RMK A01 T03290126  RH  029%=      5-min Rain = 0
KSM2 262143Z 14011KT 33/13 A3009 RMK A01 T03300131  RH  030%=      5-min Rain = 0
KSM2 262144Z 14011KT 33/13 A3009 RMK A01 T03320130  RH  029%=      5-min Rain = 0
KSM2 262145Z 15011KT 33/13 A3009 RMK A01 T03310131  RH  030%=      5-min Rain = 0
KSM2 262146Z 14013KT 33/13 A3009 RMK A01 T03320129  RH  029%=      5-min Rain = 0
KSM2 262147Z 15012KT 33/13 A3009 RMK A01 T03320125  RH  028%=      5-min Rain = 0
KSM2 262148Z 14012KT 33/13 A3009 RMK A01 T03310128  RH  029%=      5-min Rain = 0
KSM2 262149Z 14013KT 33/12 A3009 RMK A01 T03330120  RH  027%=      5-min Rain = 0
KSM2 262150Z 15013KT 33/12 A3009 RMK A01 T03300120  RH  028%=      5-min Rain = 0
KSM2 262151Z 15012KT 33/12 A3009 RMK A01 T03300120  RH  028%=      5-min Rain = 0
KSM2 262152Z 17012KT 33/12 A3009 RMK A01 T03310120  RH  028%=      5-min Rain = 0
KSM2 262153Z 17012KT 33/12 A3009 RMK A01 T03300122  RH  028%=      5-min Rain = 0
KSM2 262154Z 16011KT 33/12 A3009 RMK A01 T03280123  RH  029%=      5-min Rain = 0
KSM2 262155Z 16010KT 33/12 A3009 RMK A01 T03280119  RH  028%=      5-min Rain = 0
KSM2 262156Z 17008KT 33/12 A3008 RMK A01 T03290118  RH  027%=      5-min Rain = 0
KSM2 262157Z 17010KT 33/12 A3008 RMK A01 T03290124  RH  029%=      5-min Rain = 0
KSM2 262158Z 15010G17KT 33/13 A3008 RMK A01 T03310130  RH  030%=      5-min Rain = 0
KSM2 262159Z 14016G23KT 33/13 A3008 RMK A01 T03340132  RH  029%=      5-min Rain = 0
KSM2 262200Z 15015G20KT 33/13 A3009 RMK A01 T03320134  RH  030%=      5-min Rain = 0
KSM2 262201Z 15011KT 33/14 A3008 RMK A01 T03300135  RH  031%=      5-min Rain = 0
KSM2 262202Z 14010KT 33/14 A3008 RMK A01 T03300136  RH  031%=      5-min Rain = 0
KSM2 262203Z 15013KT 33/13 A3008 RMK A01 T03300133  RH  030%=      5-min Rain = 0
KSM2 262204Z 15013G18KT 33/13 A3009 RMK A01 T03300131  RH  030%=      5-min Rain = 0
KSM2 262205Z 17013G20KT 33/13 A3009 RMK A01 T03290134  RH  031%=      5-min Rain = 0
KSM2 262206Z 17014KT 33/13 A3009 RMK A01 T03300133  RH  030%=      5-min Rain = 0
KSM2 262207Z 18015KT 33/13 A3009 RMK A01 T03300133  RH  030%=      5-min Rain = 0
KSM2 262208Z 17013KT 33/13 A3009 RMK A01 T03280132  RH  030%=      5-min Rain = 0
KSM2 262209Z 16012KT 33/13 A3009 RMK A01 T03270132  RH  031%=      5-min Rain = 0
KSM2 262210Z 15011G17KT 33/13 A3009 RMK A01 T03270134  RH  031%=      5-min Rain = 0
KSM2 262211Z 16010KT 33/13 A3009 RMK A01 T03290134  RH  031%=      5-min Rain = 0
KSM2 262212Z 16013KT 33/14 A3009 RMK A01 T03310135  RH  031%=      5-min Rain = 0
KSM2 262213Z 15013G20KT 33/13 A3009 RMK A01 T03320132  RH  030%=      5-min Rain = 0
KSM2 262214Z 16013G18KT 33/13 A3009 RMK A01 T03310132  RH  030%=      5-min Rain = 0
KSM2 262215Z 17014KT 33/13 A3009 RMK A01 T03280133  RH  031%=      5-min Rain = 0
KSM2 262216Z 17014G19KT 33/13 A3009 RMK A01 T03280134  RH  031%=      5-min Rain = 0
KSM2 262217Z 18014KT 33/14 A3009 RMK A01 T03290136  RH  031%=      5-min Rain = 0
KSM2 262218Z 16012G17KT 33/13 A3009 RMK A01 T03290134  RH  031%=      5-min Rain = 0
KSM2 262219Z 15012G18KT 33/13 A3009 RMK A01 T03300132  RH  030%=      5-min Rain = 0
KSM2 262220Z 14013G18KT 33/13 A3009 RMK A01 T03290132  RH  030%=      5-min Rain = 0
KSM2 262221Z 16013KT 33/13 A3009 RMK A01 T03300133  RH  030%=      5-min Rain = 0
KSM2 262222Z 17013KT 33/13 A3009 RMK A01 T03300130  RH  030%=      5-min Rain = 0
KSM2 262223Z 17013KT 33/13 A3009 RMK A01 T03300131  RH  030%=      5-min Rain = 0
KSM2 262224Z 17012KT 33/13 A3009 RMK A01 T03290129  RH  030%=      5-min Rain = 0
KSM2 262225Z 17015G20KT 33/13 A3009 RMK A01 T03280127  RH  029%=      5-min Rain = 0
KSM2 262226Z 17015G21KT 33/13 A3009 RMK A01 T03280126  RH  029%=      5-min Rain = 0
KSM2 262227Z 16011KT 33/13 A3009 RMK A01 T03270128  RH  030%=      5-min Rain = 0
KSM2 262228Z 17012G18KT 33/13 A3009 RMK A01 T03270129  RH  030%=      5-min Rain = 0
KSM2 262229Z 15014KT 33/13 A3009 RMK A01 T03280128  RH  030%=      5-min Rain = 0
KSM2 262230Z 14014KT 33/13 A3009 RMK A01 T03280128  RH  030%=      5-min Rain = 0
KSM2 262231Z 15014G19KT 33/13 A3009 RMK A01 T03280128  RH  030%=      5-min Rain = 0
KSM2 262232Z 16014KT 33/13 A3009 RMK A01 T03270132  RH  031%=      5-min Rain = 0
KSM2 262233Z 15015KT 33/13 A3009 RMK A01 T03260132  RH  031%=      5-min Rain = 0
KSM2 262234Z 13013KT 33/13 A3008 RMK A01 T03250133  RH  031%=      5-min Rain = 0
KSM2 262235Z 14013KT 32/13 A3008 RMK A01 T03240133  RH  031%=      5-min Rain = 0
KSM2 262236Z 15009G14KT 32/13 A3008 RMK A01 T03240133  RH  031%=      5-min Rain = 0
KSM2 262237Z 15011G16KT 33/13 A3008 RMK A01 T03250133  RH  031%=      5-min Rain = 0
KSM2 262238Z 15013KT 33/13 A3009 RMK A01 T03260131  RH  031%=      5-min Rain = 0
KSM2 262239Z 16012KT 33/13 A3009 RMK A01 T03260132  RH  031%=      5-min Rain = 0
KSM2 262240Z 15011KT 33/13 A3008 RMK A01 T03250131  RH  031%=      5-min Rain = 0
KSM2 262241Z 15012KT 32/13 A3008 RMK A01 T03230131  RH  031%=      5-min Rain = 0
KSM2 262242Z 15013KT 32/13 A3008 RMK A01 T03230131  RH  031%=      5-min Rain = 0
KSM2 262243Z 15011G16KT 32/13 A3008 RMK A01 T03230133  RH  032%=      5-min Rain = 0
KSM2 262244Z 14009KT 32/14 A3008 RMK A01 T03220135  RH  032%=      5-min Rain = 0
KSM2 262245Z 16011G17KT 32/14 A3008 RMK A01 T03220138  RH  033%=      5-min Rain = 0
KSM2 262246Z 17012KT 32/14 A3008 RMK A01 T03220135  RH  032%=      5-min Rain = 0
KSM2 262247Z 17011KT 32/14 A3008 RMK A01 T03210135  RH  032%=      5-min Rain = 0
KSM2 262248Z 16009KT 32/14 A3008 RMK A01 T03210138  RH  033%=      5-min Rain = 0
KSM2 262249Z 16010KT 32/14 A3008 RMK A01 T03220136  RH  032%=      5-min Rain = 0
KSM2 262250Z 16006KT 32/14 A3008 RMK A01 T03230138  RH  033%=      5-min Rain = 0
KSM2 262251Z 16010KT 32/14 A3008 RMK A01 T03240138  RH  032%=      5-min Rain = 0
KSM2 262252Z 14016KT 32/13 A3008 RMK A01 T03240133  RH  031%=      5-min Rain = 0
KSM2 262253Z 14013G20KT 32/13 A3008 RMK A01 T03220133  RH  032%=      5-min Rain = 0
KSM2 262254Z 14013KT 32/14 A3008 RMK A01 T03210136  RH  032%=      5-min Rain = 0
KSM2 262255Z 14015G20KT 32/14 A3008 RMK A01 T03220137  RH  033%=      5-min Rain = 0
KSM2 262256Z 14017KT 32/14 A3008 RMK A01 T03210135  RH  032%=      5-min Rain = 0
KSM2 262257Z 15011KT 32/14 A3008 RMK A01 T03190135  RH  033%=      5-min Rain = 0
KSM2 262258Z 17013G18KT 32/14 A3008 RMK A01 T03180135  RH  033%=      5-min Rain = 0
KSM2 262259Z 14008KT 32/14 A3008 RMK A01 T03190136  RH  033%=      5-min Rain = 0
KSM2 262300Z 15010KT 32/14 A3008 RMK A01 T03210139  RH  033%=      5-min Rain = 0
KSM2 262301Z 15010KT 32/14 A3008 RMK A01 T03230140  RH  033%=      5-min Rain = 0
KSM2 262302Z 14013KT 32/14 A3008 RMK A01 T03240135  RH  032%=      5-min Rain = 0
KSM2 262303Z 16011KT 32/14 A3008 RMK A01 T03230137  RH  032%=      5-min Rain = 0
KSM2 262304Z 16012KT 32/13 A3008 RMK A01 T03230134  RH  032%=      5-min Rain = 0
KSM2 262305Z 16012KT 32/14 A3008 RMK A01 T03220139  RH  033%=      5-min Rain = 0
KSM2 262306Z 15013KT 32/14 A3008 RMK A01 T03220143  RH  034%=      5-min Rain = 0
KSM2 262307Z 16012KT 32/15 A3008 RMK A01 T03220146  RH  035%=      5-min Rain = 0
KSM2 262308Z 15013G18KT 32/15 A3008 RMK A01 T03210146  RH  035%=      5-min Rain = 0
KSM2 262309Z 15014KT 32/15 A3008 RMK A01 T03200146  RH  035%=      5-min Rain = 0
KSM2 262310Z 15013KT 32/15 A3008 RMK A01 T03200146  RH  035%=      5-min Rain = 0
KSM2 262311Z 15009G14KT 32/15 A3008 RMK A01 T03200146  RH  035%=      5-min Rain = 0
KSM2 262312Z 16011KT 32/14 A3008 RMK A01 T03210144  RH  034%=      5-min Rain = 0
KSM2 262313Z 15014KT 32/14 A3008 RMK A01 T03230138  RH  033%=      5-min Rain = 0
KSM2 262314Z 14016G21KT 32/14 A3008 RMK A01 T03220138  RH  033%=      5-min Rain = 0
KSM2 262315Z 16015G20KT 32/14 A3008 RMK A01 T03210138  RH  033%=      5-min Rain = 0
KSM2 262316Z 14016G21KT 32/14 A3008 RMK A01 T03190137  RH  033%=      5-min Rain = 0
KSM2 262317Z 15012KT 32/14 A3008 RMK A01 T03180136  RH  033%=      5-min Rain = 0
KSM2 262318Z 15014G19KT 32/14 A3008 RMK A01 T03180136  RH  033%=      5-min Rain = 0
KSM2 262319Z 15010KT 32/14 A3008 RMK A01 T03180135  RH  033%=      5-min Rain = 0
KSM2 262320Z 16015G20KT 32/14 A3008 RMK A01 T03180136  RH  033%=      5-min Rain = 0
KSM2 262321Z 15016KT 32/13 A3008 RMK A01 T03190132  RH  032%=      5-min Rain = 0
KSM2 262322Z 17014KT 32/13 A3008 RMK A01 T03190132  RH  032%=      5-min Rain = 0
KSM2 262323Z 16012KT 32/13 A3008 RMK A01 T03190134  RH  033%=      5-min Rain = 0
KSM2 262324Z 16015KT 32/14 A3008 RMK A01 T03190135  RH  033%=      5-min Rain = 0
KSM2 262325Z 15012KT 32/14 A3008 RMK A01 T03190136  RH  033%=      5-min Rain = 0
KSM2 262326Z 16012KT 32/14 A3008 RMK A01 T03190137  RH  033%=      5-min Rain = 0
KSM2 262327Z 16012KT 32/14 A3008 RMK A01 T03190137  RH  033%=      5-min Rain = 0
KSM2 262328Z 16013G21KT 32/14 A3008 RMK A01 T03180139  RH  034%=      5-min Rain = 0
KSM2 262329Z 15016KT 32/14 A3008 RMK A01 T03180139  RH  034%=      5-min Rain = 0
KSM2 262330Z 15013G19KT 32/14 A3008 RMK A01 T03170140  RH  034%=      5-min Rain = 0
KSM2 262331Z 15015KT 32/14 A3008 RMK A01 T03160140  RH  034%=      5-min Rain = 0
KSM2 262332Z 14014KT 32/14 A3008 RMK A01 T03150139  RH  034%=      5-min Rain = 0
KSM2 262333Z 15013KT 32/14 A3008 RMK A01 T03150139  RH  034%=      5-min Rain = 0
KSM2 262334Z 15015KT 31/14 A3008 RMK A01 T03140137  RH  034%=      5-min Rain = 0
KSM2 262335Z 16015G20KT 31/14 A3008 RMK A01 T03140135  RH  034%=      5-min Rain = 0
KSM2 262336Z 15014KT 31/13 A3008 RMK A01 T03140132  RH  033%=      5-min Rain = 0
KSM2 262337Z 17010G15KT 31/13 A3008 RMK A01 T03140134  RH  033%=      5-min Rain = 0
KSM2 262338Z 16011KT 31/13 A3008 RMK A01 T03140134  RH  033%=      5-min Rain = 0
KSM2 262339Z 17013G18KT 32/13 A3008 RMK A01 T03150134  RH  033%=      5-min Rain = 0
KSM2 262340Z 18013G19KT 32/13 A3008 RMK A01 T03150133  RH  033%=      5-min Rain = 0
KSM2 262341Z 15012KT 32/13 A3008 RMK A01 T03160134  RH  033%=      5-min Rain = 0
KSM2 262342Z 15014G20KT 32/13 A3008 RMK A01 T03170132  RH  033%=      5-min Rain = 0
KSM2 262343Z 14011KT 32/13 A3008 RMK A01 T03170132  RH  032%=      5-min Rain = 0
KSM2 262344Z 15011KT 32/13 A3008 RMK A01 T03170132  RH  032%=      5-min Rain = 0
KSM2 262345Z 15011KT 32/13 A3009 RMK A01 T03180133  RH  033%=      5-min Rain = 0
KSM2 262346Z 16012KT 32/13 A3009 RMK A01 T03180134  RH  033%=      5-min Rain = 0
KSM2 262347Z 15013KT 32/14 A3009 RMK A01 T03180138  RH  033%=      5-min Rain = 0
KSM2 262348Z 15013KT 32/14 A3009 RMK A01 T03180138  RH  034%=      5-min Rain = 0
KSM2 262349Z 16012KT 32/14 A3009 RMK A01 T03170140  RH  034%=      5-min Rain = 0
KSM2 262350Z 16013KT 32/14 A3009 RMK A01 T03160139  RH  034%=      5-min Rain = 0
KSM2 262351Z 16010G15KT 32/14 A3009 RMK A01 T03150140  RH  034%=      5-min Rain = 0
KSM2 262352Z 16011KT 32/14 A3009 RMK A01 T03160139  RH  034%=      5-min Rain = 0
KSM2 262353Z 16013KT 32/14 A3009 RMK A01 T03160136  RH  033%=      5-min Rain = 0
KSM2 262354Z 16016KT 32/14 A3009 RMK A01 T03150135  RH  033%=      5-min Rain = 0
KSM2 262355Z 16011KT 31/14 A3009 RMK A01 T03140135  RH  034%=      5-min Rain = 0
KSM2 262356Z 16013KT 31/14 A3009 RMK A01 T03130135  RH  034%=      5-min Rain = 0
KSM2 262357Z 15014G19KT 31/13 A3009 RMK A01 T03130134  RH  034%=      5-min Rain = 0
KSM2 262358Z 15016KT 31/14 A3009 RMK A01 T03120135  RH  034%=      5-min Rain = 0
KSM2 262359Z 15015KT 31/14 A3009 RMK A01 T03110135  RH  034%=      5-min Rain = 0
KSM2 270000Z 14014KT 31/14 A3009 RMK A01 T03110135  RH  034%=      5-min Rain = 0
KSM2 270001Z 15011G16KT 31/14 A3009 RMK A01 T03110136  RH  035%=      5-min Rain = 0
KSM2 270002Z 15014KT 31/14 A3009 RMK A01 T03100137  RH  035%=      5-min Rain = 0
KSM2 270003Z 14017G23KT 31/14 A3009 RMK A01 T03100136  RH  035%=      5-min Rain = 0
KSM2 270004Z 16014KT 31/14 A3009 RMK A01 T03090136  RH  035%=      5-min Rain = 0
KSM2 270005Z 16014KT 31/14 A3009 RMK A01 T03090135  RH  035%=      5-min Rain = 0
KSM2 270006Z 17014KT 31/13 A3009 RMK A01 T03090134  RH  034%=      5-min Rain = 0
KSM2 270007Z 16012KT 31/14 A3009 RMK A01 T03090136  RH  035%=      5-min Rain = 0
KSM2 270008Z 16013KT 31/14 A3009 RMK A01 T03090135  RH  035%=      5-min Rain = 0
KSM2 270009Z 16016G22KT 31/13 A3009 RMK A01 T03080133  RH  034%=      5-min Rain = 0
KSM2 270010Z 16011G16KT 31/13 A3009 RMK A01 T03080133  RH  034%=      5-min Rain = 0
KSM2 270011Z 16012KT 31/13 A3009 RMK A01 T03080133  RH  034%=      5-min Rain = 0
KSM2 270012Z 16010KT 31/13 A3009 RMK A01 T03080133  RH  034%=      5-min Rain = 0
KSM2 270013Z 16009KT 31/13 A3009 RMK A01 T03090133  RH  034%=      5-min Rain = 0
KSM2 270014Z 16009KT 31/13 A3009 RMK A01 T03090133  RH  034%=      5-min Rain = 0
KSM2 270015Z 16013G18KT 31/13 A3009 RMK A01 T03090131  RH  034%=      5-min Rain = 0
KSM2 270016Z 16012KT 31/13 A3009 RMK A01 T03090128  RH  033%=      5-min Rain = 0
KSM2 270017Z 16013KT 31/13 A3009 RMK A01 T03090127  RH  033%=      5-min Rain = 0
KSM2 270018Z 15012KT 31/13 A3009 RMK A01 T03090125  RH  032%=      5-min Rain = 0
KSM2 270019Z 16010KT 31/13 A3009 RMK A01 T03090125  RH  032%=      5-min Rain = 0
KSM2 270020Z 15011KT 31/12 A3009 RMK A01 T03090123  RH  032%=      5-min Rain = 0
KSM2 270021Z 16014KT 31/12 A3009 RMK A01 T03090123  RH  032%=      5-min Rain = 0
KSM2 270022Z 16011G17KT 31/12 A3009 RMK A01 T03080124  RH  032%=      5-min Rain = 0
KSM2 270023Z 16010KT 31/13 A3009 RMK A01 T03090127  RH  033%=      5-min Rain = 0
KSM2 270024Z 15015KT 31/12 A3009 RMK A01 T03090124  RH  032%=      5-min Rain = 0
KSM2 270025Z 15015KT 31/12 A3009 RMK A01 T03090124  RH  032%=      5-min Rain = 0
KSM2 270026Z 16014G19KT 31/13 A3009 RMK A01 T03100126  RH  032%=      5-min Rain = 0
KSM2 270027Z 15013KT 31/13 A3009 RMK A01 T03100127  RH  033%=      5-min Rain = 0
KSM2 270028Z 16012KT 31/13 A3009 RMK A01 T03110128  RH  033%=      5-min Rain = 0
KSM2 270029Z 16013KT 31/13 A3009 RMK A01 T03110127  RH  032%=      5-min Rain = 0
KSM2 270030Z 15012KT 31/13 A3009 RMK A01 T03100127  RH  033%=      5-min Rain = 0
KSM2 270031Z 15012KT 31/13 A3009 RMK A01 T03100126  RH  033%=      5-min Rain = 0
KSM2 270032Z 15013KT 31/13 A3009 RMK A01 T03100125  RH  032%=      5-min Rain = 0
KSM2 270033Z 15011G16KT 31/13 A3009 RMK A01 T03100126  RH  032%=      5-min Rain = 0
KSM2 270034Z 16010KT 31/13 A3009 RMK A01 T03100127  RH  033%=      5-min Rain = 0
KSM2 270035Z 16014KT 31/12 A3009 RMK A01 T03100124  RH  032%=      5-min Rain = 0
KSM2 270036Z 16011KT 31/12 A3009 RMK A01 T03090123  RH  032%=      5-min Rain = 0
KSM2 270037Z 16012KT 31/12 A3009 RMK A01 T03080123  RH  032%=      5-min Rain = 0
KSM2 270038Z 16010KT 31/13 A3009 RMK A01 T03080126  RH  033%=      5-min Rain = 0
KSM2 270039Z 16012G17KT 31/13 A3009 RMK A01 T03070127  RH  033%=      5-min Rain = 0
KSM2 270040Z 16013KT 31/13 A3009 RMK A01 T03070128  RH  033%=      5-min Rain = 0
KSM2 270041Z 16012KT 31/13 A3009 RMK A01 T03070128  RH  034%=      5-min Rain = 0
KSM2 270042Z 16008KT 31/13 A3009 RMK A01 T03060130  RH  034%=      5-min Rain = 0
KSM2 270043Z 16011G17KT 31/13 A3009 RMK A01 T03050129  RH  034%=      5-min Rain = 0
KSM2 270044Z 17010KT 30/13 A3009 RMK A01 T03040129  RH  034%=      5-min Rain = 0
KSM2 270045Z 17012KT 30/13 A3009 RMK A01 T03040126  RH  034%=      5-min Rain = 0
KSM2 270046Z 16010KT 30/13 A3009 RMK A01 T03040127  RH  034%=      5-min Rain = 0
KSM2 270047Z 17013KT 30/13 A301 RMK A01 T03030126  RH  034%=      5-min Rain = 0
KSM2 270048Z 17013KT 30/13 A301 RMK A01 T03030125  RH  033%=      5-min Rain = 0
KSM2 270049Z 17011KT 30/13 A301 RMK A01 T03030126  RH  034%=      5-min Rain = 0
KSM2 270050Z 16011G16KT 30/13 A301 RMK A01 T03030127  RH  034%=      5-min Rain = 0
KSM2 270051Z 16012KT 30/13 A301 RMK A01 T03020127  RH  034%=      5-min Rain = 0
KSM2 270052Z 16011KT 30/13 A301 RMK A01 T03020128  RH  034%=      5-min Rain = 0
KSM2 270053Z 15012KT 30/13 A301 RMK A01 T03020129  RH  035%=      5-min Rain = 0
KSM2 270054Z 15008KT 30/13 A301 RMK A01 T03020129  RH  035%=      5-min Rain = 0
KSM2 270055Z 15010KT 30/13 A3009 RMK A01 T03020129  RH  035%=      5-min Rain = 0
KSM2 270056Z 15010KT 30/13 A3009 RMK A01 T03010128  RH  035%=      5-min Rain = 0
KSM2 270057Z 16011KT 30/13 A3009 RMK A01 T03010128  RH  035%=      5-min Rain = 0
KSM2 270058Z 16009G15KT 30/13 A3009 RMK A01 T03010129  RH  035%=      5-min Rain = 0
KSM2 270059Z 16010KT 30/13 A3009 RMK A01 T03010127  RH  034%=      5-min Rain = 0
KSM2 270100Z 16009KT 30/13 A3009 RMK A01 T03000128  RH  035%=      5-min Rain = 0
KSM2 270101Z 16009KT 30/13 A3009 RMK A01 T03000126  RH  034%=      5-min Rain = 0
KSM2 270102Z 17011KT 30/13 A3009 RMK A01 T02990126  RH  034%=      5-min Rain = 0
KSM2 270103Z 16010KT 30/13 A3009 RMK A01 T02990126  RH  034%=      5-min Rain = 0
KSM2 270104Z 17010KT 30/13 A301 RMK A01 T02990126  RH  035%=      5-min Rain = 0
KSM2 270105Z 17010KT 30/13 A301 RMK A01 T02990127  RH  035%=      5-min Rain = 0
KSM2 270106Z 17009KT 30/13 A301 RMK A01 T02990128  RH  035%=      5-min Rain = 0
KSM2 270107Z 17010KT 30/13 A301 RMK A01 T02980129  RH  035%=      5-min Rain = 0
KSM2 270108Z 16012G17KT 30/13 A301 RMK A01 T02980129  RH  035%=      5-min Rain = 0
KSM2 270109Z 16013G18KT 30/13 A3009 RMK A01 T02990129  RH  035%=      5-min Rain = 0
KSM2 270110Z 17013KT 30/13 A301 RMK A01 T02990128  RH  035%=      5-min Rain = 0
KSM2 270111Z 17013KT 30/13 A3009 RMK A01 T03000126  RH  035%=      5-min Rain = 0
KSM2 270112Z 17011KT 30/13 A3009 RMK A01 T03000127  RH  035%=      5-min Rain = 0
KSM2 270113Z 16011KT 30/13 A3009 RMK A01 T03000129  RH  035%=      5-min Rain = 0
KSM2 270114Z 16011KT 30/13 A3009 RMK A01 T03000129  RH  035%=      5-min Rain = 0
KSM2 270115Z 17009KT 30/13 A3009 RMK A01 T03000130  RH  035%=      5-min Rain = 0
KSM2 270116Z 16010KT 30/13 A3009 RMK A01 T03000129  RH  035%=      5-min Rain = 0
KSM2 270117Z 17012KT 30/13 A301 RMK A01 T03000128  RH  035%=      5-min Rain = 0
KSM2 270118Z 16010KT 30/13 A301 RMK A01 T03000129  RH  035%=      5-min Rain = 0
KSM2 270119Z 17011KT 30/13 A301 RMK A01 T02990129  RH  035%=      5-min Rain = 0
KSM2 270120Z 16012KT 30/13 A301 RMK A01 T02980129  RH  035%=      5-min Rain = 0
KSM2 270121Z 16010KT 30/13 A301 RMK A01 T02980129  RH  035%=      5-min Rain = 0
KSM2 270122Z 16010KT 30/13 A301 RMK A01 T02980128  RH  035%=      5-min Rain = 0
KSM2 270123Z 16010KT 30/13 A301 RMK A01 T02980129  RH  035%=      5-min Rain = 0
KSM2 270124Z 16009KT 30/13 A301 RMK A01 T02980128  RH  035%=      5-min Rain = 0
KSM2 270125Z 16011KT 30/13 A301 RMK A01 T02970128  RH  035%=      5-min Rain = 0
KSM2 270126Z 17010KT 30/13 A301 RMK A01 T02970128  RH  035%=      5-min Rain = 0
KSM2 270127Z 16011KT 30/13 A301 RMK A01 T02960127  RH  035%=      5-min Rain = 0
KSM2 270128Z 16011KT 30/13 A301 RMK A01 T02960125  RH  035%=      5-min Rain = 0
KSM2 270129Z 16010KT 30/13 A301 RMK A01 T02960125  RH  035%=      5-min Rain = 0
KSM2 270130Z 16009KT 30/12 A301 RMK A01 T02950124  RH  035%=      5-min Rain = 0
KSM2 270131Z 16008KT 30/12 A301 RMK A01 T02950124  RH  035%=      5-min Rain = 0
KSM2 270132Z 17009KT 29/13 A301 RMK A01 T02940125  RH  035%=      5-min Rain = 0
KSM2 270133Z 16010KT 29/12 A301 RMK A01 T02940124  RH  035%=      5-min Rain = 0
KSM2 270134Z 16008KT 29/12 A301 RMK A01 T02940123  RH  035%=      5-min Rain = 0
KSM2 270135Z 16009KT 29/12 A301 RMK A01 T02930124  RH  035%=      5-min Rain = 0
KSM2 270136Z 16010KT 29/12 A301 RMK A01 T02930124  RH  035%=      5-min Rain = 0
KSM2 270137Z 16010KT 29/12 A301 RMK A01 T02930123  RH  035%=      5-min Rain = 0
KSM2 270138Z 16008KT 29/12 A301 RMK A01 T02930124  RH  035%=      5-min Rain = 0
KSM2 270139Z 16008KT 29/12 A3011 RMK A01 T02920124  RH  036%=      5-min Rain = 0
KSM2 270140Z 17009KT 29/12 A3011 RMK A01 T02910124  RH  036%=      5-min Rain = 0
KSM2 270141Z 16011KT 29/12 A3011 RMK A01 T02910124  RH  036%=      5-min Rain = 0
KSM2 270142Z 16010KT 29/12 A3011 RMK A01 T02900124  RH  036%=      5-min Rain = 0
KSM2 270143Z 16010KT 29/12 A3011 RMK A01 T02900124  RH  036%=      5-min Rain = 0
KSM2 270144Z 16012KT 29/12 A3011 RMK A01 T02900124  RH  036%=      5-min Rain = 0
KSM2 270145Z 16009KT 29/13 A3011 RMK A01 T02900126  RH  036%=      5-min Rain = 0
KSM2 270146Z 16010KT 29/13 A3011 RMK A01 T02900126  RH  036%=      5-min Rain = 0
KSM2 270147Z 16011KT 29/13 A3011 RMK A01 T02900127  RH  037%=      5-min Rain = 0
KSM2 270148Z 16010KT 29/13 A3011 RMK A01 T02900127  RH  037%=      5-min Rain = 0
KSM2 270149Z 16010KT 29/13 A3011 RMK A01 T02900128  RH  037%=      5-min Rain = 0
KSM2 270150Z 16010KT 29/13 A3011 RMK A01 T02900128  RH  037%=      5-min Rain = 0
KSM2 270151Z 16009KT 29/13 A3011 RMK A01 T02900129  RH  037%=      5-min Rain = 0
KSM2 270152Z 16009KT 29/13 A3011 RMK A01 T02890129  RH  037%=      5-min Rain = 0
KSM2 270153Z 16010KT 29/13 A3011 RMK A01 T02890129  RH  037%=      5-min Rain = 0
KSM2 270154Z 16010KT 29/13 A3011 RMK A01 T02880129  RH  038%=      5-min Rain = 0
KSM2 270155Z 16008KT 29/13 A3011 RMK A01 T02880130  RH  038%=      5-min Rain = 0
KSM2 270156Z 17009KT 29/13 A3011 RMK A01 T02880130  RH  038%=      5-min Rain = 0
KSM2 270157Z 16008KT 29/13 A3011 RMK A01 T02870130  RH  038%=      5-min Rain = 0
KSM2 270158Z 16008KT 29/13 A3012 RMK A01 T02870130  RH  038%=      5-min Rain = 0
KSM2 270159Z 16007KT 29/13 A3012 RMK A01 T02860131  RH  039%=      5-min Rain = 0
KSM2 270200Z 16009KT 29/13 A3012 RMK A01 T02850131  RH  039%=      5-min Rain = 0
KSM2 270201Z 16008KT 29/13 A3012 RMK A01 T02850131  RH  039%=      5-min Rain = 0
KSM2 270202Z 16007KT 28/13 A3012 RMK A01 T02840131  RH  039%=      5-min Rain = 0
KSM2 270203Z 16008KT 28/13 A3012 RMK A01 T02830131  RH  039%=      5-min Rain = 0
KSM2 270204Z 16007KT 28/13 A3012 RMK A01 T02830130  RH  039%=      5-min Rain = 0
KSM2 270205Z 16008KT 28/13 A3012 RMK A01 T02830130  RH  039%=      5-min Rain = 0
KSM2 270206Z 16007KT 28/13 A3012 RMK A01 T02830130  RH  039%=      5-min Rain = 0
KSM2 270207Z 16007KT 28/13 A3012 RMK A01 T02820130  RH  039%=      5-min Rain = 0
KSM2 270208Z 15006KT 28/13 A3012 RMK A01 T02820130  RH  039%=      5-min Rain = 0
KSM2 270209Z 16006KT 28/13 A3012 RMK A01 T02810130  RH  039%=      5-min Rain = 0
KSM2 270210Z 16007KT 28/13 A3012 RMK A01 T02810130  RH  039%=      5-min Rain = 0
KSM2 270211Z 15007KT 28/13 A3012 RMK A01 T02800130  RH  039%=      5-min Rain = 0
KSM2 270212Z 15005KT 28/13 A3013 RMK A01 T02800130  RH  040%=      5-min Rain = 0
KSM2 270213Z 15007KT 28/13 A3013 RMK A01 T02800132  RH  040%=      5-min Rain = 0
KSM2 270214Z 15007KT 28/13 A3013 RMK A01 T02800131  RH  040%=      5-min Rain = 0
KSM2 270215Z 15005KT 28/13 A3013 RMK A01 T02800131  RH  040%=      5-min Rain = 0
KSM2 270216Z 15006KT 28/13 A3013 RMK A01 T02800132  RH  040%=      5-min Rain = 0
KSM2 270217Z 15007KT 28/13 A3013 RMK A01 T02800134  RH  041%=      5-min Rain = 0
KSM2 270218Z 14006KT 28/14 A3013 RMK A01 T02790135  RH  041%=      5-min Rain = 0
KSM2 270219Z 15006KT 28/14 A3013 RMK A01 T02790136  RH  041%=      5-min Rain = 0
KSM2 270220Z 15008KT 28/14 A3013 RMK A01 T02790139  RH  042%=      5-min Rain = 0
KSM2 270221Z 15007KT 28/14 A3013 RMK A01 T02780140  RH  043%=      5-min Rain = 0
KSM2 270222Z 15006KT 28/14 A3013 RMK A01 T02780141  RH  043%=      5-min Rain = 0
KSM2 270223Z 16007KT 28/14 A3013 RMK A01 T02780142  RH  043%=      5-min Rain = 0
KSM2 270224Z 15007KT 28/14 A3013 RMK A01 T02780143  RH  044%=      5-min Rain = 0
KSM2 270225Z 15007KT 28/14 A3014 RMK A01 T02780144  RH  044%=      5-min Rain = 0
KSM2 270226Z 15007KT 28/14 A3014 RMK A01 T02770144  RH  044%=      5-min Rain = 0
KSM2 270227Z 15007KT 28/14 A3014 RMK A01 T02780144  RH  044%=      5-min Rain = 0
KSM2 270228Z 16007KT 28/14 A3014 RMK A01 T02780144  RH  044%=      5-min Rain = 0
KSM2 270229Z 16007KT 28/15 A3014 RMK A01 T02770145  RH  044%=      5-min Rain = 0
KSM2 270230Z 16008KT 28/14 A3014 RMK A01 T02770144  RH  044%=      5-min Rain = 0
KSM2 270231Z 16007KT 28/14 A3014 RMK A01 T02770144  RH  044%=      5-min Rain = 0
KSM2 270232Z 15006KT 28/14 A3014 RMK A01 T02770144  RH  044%=      5-min Rain = 0
KSM2 270233Z 15007KT 28/14 A3014 RMK A01 T02770143  RH  044%=      5-min Rain = 0
KSM2 270234Z 15005KT 28/14 A3014 RMK A01 T02770143  RH  044%=      5-min Rain = 0
KSM2 270235Z 14007KT 28/14 A3014 RMK A01 T02770144  RH  044%=      5-min Rain = 0
KSM2 270236Z 15006KT 28/14 A3014 RMK A01 T02760143  RH  044%=      5-min Rain = 0
KSM2 270237Z 15007KT 28/14 A3014 RMK A01 T02760144  RH  044%=      5-min Rain = 0
KSM2 270238Z 15006KT 28/14 A3014 RMK A01 T02750144  RH  044%=      5-min Rain = 0
KSM2 270239Z 15006KT 28/14 A3014 RMK A01 T02750144  RH  045%=      5-min Rain = 0
KSM2 270240Z 15006KT 28/14 A3014 RMK A01 T02750144  RH  045%=      5-min Rain = 0
KSM2 270241Z 15006KT 27/14 A3015 RMK A01 T02740143  RH  045%=      5-min Rain = 0
KSM2 270242Z 15005KT 27/14 A3015 RMK A01 T02730143  RH  045%=      5-min Rain = 0
KSM2 270243Z 15006KT 27/14 A3015 RMK A01 T02730143  RH  045%=      5-min Rain = 0
KSM2 270244Z 15006KT 27/14 A3015 RMK A01 T02730143  RH  045%=      5-min Rain = 0
KSM2 270245Z 15005KT 27/14 A3015 RMK A01 T02720143  RH  045%=      5-min Rain = 0
KSM2 270246Z 15005KT 27/14 A3015 RMK A01 T02720144  RH  045%=      5-min Rain = 0
KSM2 270247Z 14006KT 27/14 A3015 RMK A01 T02710144  RH  045%=      5-min Rain = 0
KSM2 270248Z 15006KT 27/14 A3015 RMK A01 T02710144  RH  046%=      5-min Rain = 0
KSM2 270249Z 14006KT 27/14 A3015 RMK A01 T02710144  RH  046%=      5-min Rain = 0
KSM2 270250Z 15005KT 27/14 A3015 RMK A01 T02700143  RH  046%=      5-min Rain = 0
KSM2 270251Z 15005KT 27/14 A3015 RMK A01 T02700144  RH  046%=      5-min Rain = 0
KSM2 270252Z 14005KT 27/14 A3016 RMK A01 T02690144  RH  046%=      5-min Rain = 0
KSM2 270253Z 14005KT 27/14 A3016 RMK A01 T02690143  RH  046%=      5-min Rain = 0
KSM2 270254Z 14006KT 27/14 A3016 RMK A01 T02690144  RH  046%=      5-min Rain = 0
KSM2 270255Z 14006KT 27/14 A3016 RMK A01 T02680143  RH  046%=      5-min Rain = 0
KSM2 270256Z 14006KT 27/14 A3016 RMK A01 T02680144  RH  046%=      5-min Rain = 0
KSM2 270257Z 14006KT 27/14 A3016 RMK A01 T02680144  RH  046%=      5-min Rain = 0
KSM2 270258Z 14006KT 27/14 A3016 RMK A01 T02680144  RH  047%=      5-min Rain = 0
KSM2 270259Z 14005KT 27/14 A3016 RMK A01 T02670144  RH  047%=      5-min Rain = 0
KSM2 270300Z 14006KT 27/14 A3016 RMK A01 T02660144  RH  047%=      5-min Rain = 0
KSM2 270301Z 14006KT 27/14 A3016 RMK A01 T02650144  RH  047%=      5-min Rain = 0
KSM2 270302Z 14006KT 27/15 A3016 RMK A01 T02650145  RH  048%=      5-min Rain = 0
KSM2 270303Z 14006KT 26/14 A3016 RMK A01 T02640144  RH  048%=      5-min Rain = 0
KSM2 270304Z 14007KT 26/15 A3016 RMK A01 T02640145  RH  048%=      5-min Rain = 0
KSM2 270305Z 14007KT 26/14 A3016 RMK A01 T02640144  RH  048%=      5-min Rain = 0
KSM2 270306Z 14006KT 27/15 A3016 RMK A01 T02650145  RH  048%=      5-min Rain = 0
KSM2 270307Z 14006KT 27/15 A3016 RMK A01 T02650145  RH  048%=      5-min Rain = 0
KSM2 270308Z 14007KT 27/15 A3016 RMK A01 T02650145  RH  048%=      5-min Rain = 0
KSM2 270309Z 14007KT 26/15 A3016 RMK A01 T02640145  RH  048%=      5-min Rain = 0
KSM2 270310Z 15006KT 26/15 A3016 RMK A01 T02640145  RH  048%=      5-min Rain = 0
KSM2 270311Z 14007KT 26/15 A3016 RMK A01 T02640145  RH  048%=      5-min Rain = 0
KSM2 270312Z 14007KT 26/15 A3017 RMK A01 T02640145  RH  048%=      5-min Rain = 0
KSM2 270313Z 14006KT 26/15 A3017 RMK A01 T02640145  RH  048%=      5-min Rain = 0
KSM2 270314Z 13005KT 26/15 A3017 RMK A01 T02630145  RH  048%=      5-min Rain = 0
KSM2 270315Z 14005KT 26/15 A3017 RMK A01 T02620145  RH  049%=      5-min Rain = 0
KSM2 270316Z 13005KT 26/15 A3017 RMK A01 T02610145  RH  049%=      5-min Rain = 0
KSM2 270317Z 13005KT 26/15 A3017 RMK A01 T02600146  RH  049%=      5-min Rain = 0
KSM2 270318Z 14005KT 26/15 A3017 RMK A01 T02590146  RH  049%=      5-min Rain = 0
KSM2 270319Z 14004KT 26/15 A3017 RMK A01 T02580146  RH  050%=      5-min Rain = 0
KSM2 270320Z 14005KT 26/15 A3017 RMK A01 T02580146  RH  050%=      5-min Rain = 0
KSM2 270321Z 14005KT 26/15 A3017 RMK A01 T02570146  RH  050%=      5-min Rain = 0
KSM2 270322Z 14005KT 26/15 A3017 RMK A01 T02570146  RH  050%=      5-min Rain = 0
KSM2 270323Z 13005KT 26/15 A3017 RMK A01 T02570146  RH  050%=      5-min Rain = 0
KSM2 270324Z 13004KT 26/15 A3017 RMK A01 T02560146  RH  050%=      5-min Rain = 0
KSM2 270325Z 13005KT 26/15 A3017 RMK A01 T02550146  RH  051%=      5-min Rain = 0
KSM2 270326Z 13005KT 26/15 A3018 RMK A01 T02550146  RH  051%=      5-min Rain = 0
KSM2 270327Z 13004KT 25/15 A3018 RMK A01 T02540145  RH  051%=      5-min Rain = 0
KSM2 270328Z 12004KT 25/15 A3018 RMK A01 T02540146  RH  051%=      5-min Rain = 0
KSM2 270329Z 12004KT 25/15 A3018 RMK A01 T02530146  RH  051%=      5-min Rain = 0
KSM2 270330Z 12004KT 25/15 A3018 RMK A01 T02530145  RH  051%=      5-min Rain = 0
KSM2 270331Z 11004KT 25/15 A3018 RMK A01 T02520145  RH  051%=      5-min Rain = 0
KSM2 270332Z 12003KT 25/15 A3018 RMK A01 T02510145  RH  052%=      5-min Rain = 0
KSM2 270333Z 12003KT 25/15 A3018 RMK A01 T02500145  RH  052%=      5-min Rain = 0
KSM2 270334Z 12004KT 25/15 A3018 RMK A01 T02490145  RH  052%=      5-min Rain = 0
KSM2 270335Z 12004KT 25/15 A3018 RMK A01 T02490145  RH  052%=      5-min Rain = 0
KSM2 270336Z 12004KT 25/15 A3018 RMK A01 T02480145  RH  052%=      5-min Rain = 0
KSM2 270337Z 13004KT 25/15 A3018 RMK A01 T02480145  RH  052%=      5-min Rain = 0
KSM2 270338Z 12004KT 25/15 A3018 RMK A01 T02490145  RH  053%=      5-min Rain = 0
KSM2 270339Z 12003KT 25/15 A3018 RMK A01 T02490146  RH  053%=      5-min Rain = 0
KSM2 270340Z 12004KT 25/15 A3018 RMK A01 T02480146  RH  053%=      5-min Rain = 0
KSM2 270341Z 12004KT 25/15 A3018 RMK A01 T02480146  RH  053%=      5-min Rain = 0
KSM2 270342Z 12004KT 25/15 A3018 RMK A01 T02480146  RH  053%=      5-min Rain = 0
KSM2 270343Z 13004KT 25/15 A3018 RMK A01 T02480146  RH  053%=      5-min Rain = 0
KSM2 270344Z 13005KT 25/15 A3018 RMK A01 T02480147  RH  053%=      5-min Rain = 0
KSM2 270345Z 13004KT 25/15 A3018 RMK A01 T02480147  RH  053%=      5-min Rain = 0
KSM2 270346Z 12004KT 25/15 A3019 RMK A01 T02480147  RH  054%=      5-min Rain = 0
KSM2 270347Z 12005KT 25/15 A3019 RMK A01 T02470147  RH  054%=      5-min Rain = 0
KSM2 270348Z 12004KT 25/15 A3019 RMK A01 T02470148  RH  054%=      5-min Rain = 0
KSM2 270349Z 12004KT 25/15 A3019 RMK A01 T02460147  RH  054%=      5-min Rain = 0
KSM2 270350Z 13004KT 25/15 A3019 RMK A01 T02450147  RH  054%=      5-min Rain = 0
KSM2 270351Z 13004KT 25/15 A3019 RMK A01 T02450147  RH  054%=      5-min Rain = 0
KSM2 270352Z 13004KT 25/15 A3019 RMK A01 T02460147  RH  054%=      5-min Rain = 0
KSM2 270353Z 12004KT 25/15 A3019 RMK A01 T02460147  RH  054%=      5-min Rain = 0
KSM2 270354Z 12003KT 25/15 A3019 RMK A01 T02460147  RH  054%=      5-min Rain = 0
KSM2 270355Z 12004KT 25/15 A3019 RMK A01 T02460147  RH  054%=      5-min Rain = 0
KSM2 270356Z 12004KT 25/15 A3019 RMK A01 T02450147  RH  054%=      5-min Rain = 0
KSM2 270357Z 13004KT 25/15 A3019 RMK A01 T02450147  RH  054%=      5-min Rain = 0
KSM2 270358Z 12004KT 24/15 A3019 RMK A01 T02440147  RH  055%=      5-min Rain = 0
KSM2 270359Z 12004KT 24/15 A3019 RMK A01 T02440147  RH  055%=      5-min Rain = 0
KSM2 270400Z 11004KT 24/15 A3019 RMK A01 T02430147  RH  055%=      5-min Rain = 0
KSM2 270401Z 12003KT 24/15 A3019 RMK A01 T02430147  RH  055%=      5-min Rain = 0
KSM2 270402Z 12003KT 24/15 A3019 RMK A01 T02430147  RH  055%=      5-min Rain = 0
KSM2 270403Z 12003KT 24/15 A3019 RMK A01 T02420147  RH  055%=      5-min Rain = 0
KSM2 270404Z 12002KT 24/15 A302 RMK A01 T02420147  RH  056%=      5-min Rain = 0
KSM2 270405Z 12003KT 24/15 A302 RMK A01 T02410147  RH  056%=      5-min Rain = 0
KSM2 270406Z 11002KT 24/15 A302 RMK A01 T02410147  RH  056%=      5-min Rain = 0
KSM2 270407Z 10002KT 24/15 A302 RMK A01 T02410147  RH  056%=      5-min Rain = 0
KSM2 270408Z 09001KT 24/15 A302 RMK A01 T02410147  RH  056%=      5-min Rain = 0
KSM2 270409Z 07001KT 24/15 A302 RMK A01 T02410147  RH  056%=      5-min Rain = 0
KSM2 270410Z 05001KT 24/15 A302 RMK A01 T02400147  RH  056%=      5-min Rain = 0
KSM2 270411Z 03001KT 24/15 A302 RMK A01 T02400146  RH  055%=      5-min Rain = 0
KSM2 270412Z 00001KT 24/15 A3021 RMK A01 T02400145  RH  055%=      5-min Rain = 0
KSM2 270413Z 35002KT 24/15 A3021 RMK A01 T02400145  RH  055%=      5-min Rain = 0
KSM2 270414Z 34003KT 24/14 A3021 RMK A01 T02380144  RH  056%=      5-min Rain = 0
KSM2 270415Z 33004KT 24/14 A3021 RMK A01 T02360143  RH  056%=      5-min Rain = 0
KSM2 270416Z 33006KT 23/14 A3021 RMK A01 T02310143  RH  058%=      5-min Rain = 0
KSM2 270417Z 33006KT 23/14 A3021 RMK A01 T02260143  RH  059%=      5-min Rain = 0
KSM2 270418Z 34006KT 22/14 A3021 RMK A01 T02230142  RH  060%=      5-min Rain = 0
KSM2 270419Z 34006KT 22/14 A3021 RMK A01 T02210143  RH  061%=      5-min Rain = 0
KSM2 270420Z 34005KT 22/14 A3021 RMK A01 T02190144  RH  062%=      5-min Rain = 0
KSM2 270421Z 34005KT 22/14 A3021 RMK A01 T02180144  RH  062%=      5-min Rain = 0
KSM2 270422Z 34005KT 22/14 A3021 RMK A01 T02170144  RH  063%=      5-min Rain = 0
KSM2 270423Z 34004KT 22/15 A3021 RMK A01 T02170145  RH  063%=      5-min Rain = 0
KSM2 270424Z 34002KT 22/15 A3021 RMK A01 T02170145  RH  063%=      5-min Rain = 0
KSM2 270425Z 34002KT 22/15 A3021 RMK A01 T02170145  RH  064%=      5-min Rain = 0
KSM2 270426Z 34002KT 22/15 A302 RMK A01 T02160145  RH  064%=      5-min Rain = 0
KSM2 270427Z 03000KT 22/15 A302 RMK A01 T02160145  RH  064%=      5-min Rain = 0
KSM2 270428Z 03000KT 22/15 A302 RMK A01 T02160146  RH  064%=      5-min Rain = 0
KSM2 270429Z 12000KT 22/15 A302 RMK A01 T02150145  RH  064%=      5-min Rain = 0
KSM2 270430Z 14002KT 22/15 A302 RMK A01 T02150146  RH  064%=      5-min Rain = 0
KSM2 270431Z 14003KT 22/15 A302 RMK A01 T02170147  RH  064%=      5-min Rain = 0
KSM2 270432Z 14003KT 22/15 A302 RMK A01 T02180147  RH  064%=      5-min Rain = 0
KSM2 270433Z 14004KT 22/15 A302 RMK A01 T02200147  RH  063%=      5-min Rain = 0
KSM2 270434Z 14005KT 22/15 A302 RMK A01 T02230148  RH  062%=      5-min Rain = 0
KSM2 270435Z 14005KT 23/15 A302 RMK A01 T02260148  RH  062%=      5-min Rain = 0
KSM2 270436Z 14006KT 23/15 A302 RMK A01 T02280149  RH  061%=      5-min Rain = 0
KSM2 270437Z 14007KT 23/15 A302 RMK A01 T02310149  RH  060%=      5-min Rain = 0
KSM2 270438Z 14007KT 23/15 A302 RMK A01 T02340150  RH  059%=      5-min Rain = 0
KSM2 270439Z 14008KT 24/15 A302 RMK A01 T02360150  RH  058%=      5-min Rain = 0
KSM2 270440Z 14009KT 24/15 A3019 RMK A01 T02390150  RH  057%=      5-min Rain = 0
KSM2 270441Z 14009KT 24/15 A3019 RMK A01 T02410151  RH  057%=      5-min Rain = 0
KSM2 270442Z 14008KT 24/15 A3019 RMK A01 T02420150  RH  056%=      5-min Rain = 0
KSM2 270443Z 14008KT 24/15 A3019 RMK A01 T02430151  RH  056%=      5-min Rain = 0
KSM2 270444Z 14008KT 24/15 A3019 RMK A01 T02440151  RH  056%=      5-min Rain = 0
KSM2 270445Z 14008KT 24/15 A3019 RMK A01 T02440151  RH  056%=      5-min Rain = 0
KSM2 270446Z 14008KT 25/15 A3019 RMK A01 T02450151  RH  056%=      5-min Rain = 0
KSM2 270447Z 14009KT 25/15 A3019 RMK A01 T02450151  RH  056%=      5-min Rain = 0
KSM2 270448Z 14010KT 25/15 A3019 RMK A01 T02450151  RH  056%=      5-min Rain = 0
KSM2 270449Z 14009KT 25/15 A3018 RMK A01 T02450152  RH  056%=      5-min Rain = 0
KSM2 270450Z 14009KT 25/15 A3018 RMK A01 T02450152  RH  056%=      5-min Rain = 0
KSM2 270451Z 14009KT 24/15 A3018 RMK A01 T02440152  RH  056%=      5-min Rain = 0
KSM2 270452Z 14010KT 25/15 A3018 RMK A01 T02450152  RH  056%=      5-min Rain = 0
KSM2 270453Z 14009KT 24/15 A3018 RMK A01 T02440152  RH  056%=      5-min Rain = 0
KSM2 270454Z 14010KT 25/15 A3018 RMK A01 T02450153  RH  057%=      5-min Rain = 0
KSM2 270455Z 14012KT 25/15 A3018 RMK A01 T02450154  RH  057%=      5-min Rain = 0
KSM2 270456Z 15011KT 25/15 A3018 RMK A01 T02460154  RH  057%=      5-min Rain = 0
KSM2 270457Z 15011KT 25/16 A3018 RMK A01 T02460155  RH  057%=      5-min Rain = 0
KSM2 270458Z 15010KT 25/16 A3018 RMK A01 T02460155  RH  057%=      5-min Rain = 0
KSM2 270459Z 15009KT 25/16 A3018 RMK A01 T02450156  RH  057%=      5-min Rain = 0

Page generated in 0.1468 seconds.